<?xml version="1.0" encoding="UTF-8" standalone="no" ?>
<gpx xmlns="http://www.topografix.com/GPX/1/1" xmlns:xsi="http://www.w3.org/2001/XMLSchema-instance" xsi:schemaLocation="http://www.topografix.com/GPX/1/1 http://www.topografix.com/GPX/1/1/gpx.xsd" version="1.1" creator="VisuGPX - https://www.visugpx.com">
  <metadata>
    <name>Tour du pic de l'oeilly</name>
    <desc><![CDATA[File with points/tracks from Locus Map/4.5.7]]></desc>
  </metadata>
  <trk>
    <name><![CDATA[2022-01-01 13:58]]></name>
    <extensions>
      <line xmlns="http://www.topografix.com/GPX/gpx_style/0/2">
        <color>0000FF</color>
        <opacity>0.59</opacity>
        <width>6.0</width>
      </line>
    </extensions>
    <trkseg>
      <trkpt lat="45.0848" lon="5.84639">
        <ele>1269.49</ele>
        <time>2022-01-01T12:58:19.000Z</time>
      </trkpt>
      <trkpt lat="45.08479" lon="5.84633">
        <ele>1272.16</ele>
        <time>2022-01-01T12:58:29.000Z</time>
      </trkpt>
      <trkpt lat="45.08484" lon="5.8463">
        <ele>1270.97</ele>
        <time>2022-01-01T12:58:39.000Z</time>
      </trkpt>
      <trkpt lat="45.08488" lon="5.84621">
        <ele>1266.87</ele>
        <time>2022-01-01T12:58:49.000Z</time>
      </trkpt>
      <trkpt lat="45.08494" lon="5.84614">
        <ele>1263.8</ele>
        <time>2022-01-01T12:59:00.000Z</time>
      </trkpt>
      <trkpt lat="45.08513" lon="5.84612">
        <ele>1267.76</ele>
        <time>2022-01-01T12:59:10.000Z</time>
      </trkpt>
      <trkpt lat="45.08514" lon="5.84611">
        <ele>1270.39</ele>
        <time>2022-01-01T12:59:20.000Z</time>
      </trkpt>
      <trkpt lat="45.08518" lon="5.84609">
        <ele>1270.86</ele>
        <time>2022-01-01T12:59:30.000Z</time>
      </trkpt>
      <trkpt lat="45.08518" lon="5.84608">
        <ele>1272.34</ele>
        <time>2022-01-01T13:00:00.000Z</time>
      </trkpt>
      <trkpt lat="45.0852" lon="5.84606">
        <ele>1272.22</ele>
        <time>2022-01-01T13:00:11.000Z</time>
      </trkpt>
      <trkpt lat="45.08529" lon="5.84591">
        <ele>1269.77</ele>
        <time>2022-01-01T13:00:21.000Z</time>
      </trkpt>
      <trkpt lat="45.0855" lon="5.84593">
        <ele>1280.18</ele>
        <time>2022-01-01T13:00:31.000Z</time>
      </trkpt>
      <trkpt lat="45.08558" lon="5.84579">
        <ele>1291.89</ele>
        <time>2022-01-01T13:00:41.000Z</time>
      </trkpt>
      <trkpt lat="45.08559" lon="5.84579">
        <ele>1290.4</ele>
        <time>2022-01-01T13:00:51.000Z</time>
      </trkpt>
      <trkpt lat="45.08561" lon="5.84578">
        <ele>1291.75</ele>
        <time>2022-01-01T13:01:01.000Z</time>
      </trkpt>
      <trkpt lat="45.08561" lon="5.84577">
        <ele>1291.42</ele>
        <time>2022-01-01T13:01:11.000Z</time>
      </trkpt>
      <trkpt lat="45.08559" lon="5.84577">
        <ele>1292.1</ele>
        <time>2022-01-01T13:05:25.000Z</time>
      </trkpt>
      <trkpt lat="45.08543" lon="5.84553">
        <ele>1286.07</ele>
        <time>2022-01-01T13:05:35.000Z</time>
      </trkpt>
      <trkpt lat="45.08524" lon="5.84544">
        <ele>1287.46</ele>
        <time>2022-01-01T13:05:45.000Z</time>
      </trkpt>
      <trkpt lat="45.08523" lon="5.84529">
        <ele>1283.54</ele>
        <time>2022-01-01T13:05:55.000Z</time>
      </trkpt>
      <trkpt lat="45.08515" lon="5.84522">
        <ele>1285.79</ele>
        <time>2022-01-01T13:06:05.000Z</time>
      </trkpt>
      <trkpt lat="45.08509" lon="5.84522">
        <ele>1284.73</ele>
        <time>2022-01-01T13:06:15.000Z</time>
      </trkpt>
      <trkpt lat="45.08508" lon="5.84522">
        <ele>1285.34</ele>
        <time>2022-01-01T13:06:25.000Z</time>
      </trkpt>
      <trkpt lat="45.08503" lon="5.8452">
        <ele>1287.91</ele>
        <time>2022-01-01T13:06:35.000Z</time>
      </trkpt>
      <trkpt lat="45.08497" lon="5.84519">
        <ele>1291.59</ele>
        <time>2022-01-01T13:06:45.000Z</time>
      </trkpt>
      <trkpt lat="45.08495" lon="5.84518">
        <ele>1290.07</ele>
        <time>2022-01-01T13:06:55.000Z</time>
      </trkpt>
      <trkpt lat="45.08493" lon="5.84517">
        <ele>1289.11</ele>
        <time>2022-01-01T13:07:09.000Z</time>
      </trkpt>
      <trkpt lat="45.0848" lon="5.84512">
        <ele>1287.45</ele>
        <time>2022-01-01T13:07:19.000Z</time>
      </trkpt>
      <trkpt lat="45.08473" lon="5.84514">
        <ele>1291.22</ele>
        <time>2022-01-01T13:07:29.000Z</time>
      </trkpt>
      <trkpt lat="45.08473" lon="5.84512">
        <ele>1293.18</ele>
        <time>2022-01-01T13:07:39.000Z</time>
      </trkpt>
      <trkpt lat="45.08455" lon="5.845">
        <ele>1292.88</ele>
        <time>2022-01-01T13:07:49.000Z</time>
      </trkpt>
      <trkpt lat="45.08447" lon="5.84487">
        <ele>1295.8</ele>
        <time>2022-01-01T13:07:59.000Z</time>
      </trkpt>
      <trkpt lat="45.08442" lon="5.84473">
        <ele>1294.83</ele>
        <time>2022-01-01T13:08:09.000Z</time>
      </trkpt>
      <trkpt lat="45.08439" lon="5.84469">
        <ele>1301.42</ele>
        <time>2022-01-01T13:08:19.000Z</time>
      </trkpt>
      <trkpt lat="45.08436" lon="5.84465">
        <ele>1306.01</ele>
        <time>2022-01-01T13:08:29.000Z</time>
      </trkpt>
      <trkpt lat="45.08435" lon="5.84465">
        <ele>1306.64</ele>
        <time>2022-01-01T13:08:39.000Z</time>
      </trkpt>
      <trkpt lat="45.08434" lon="5.84463">
        <ele>1307.18</ele>
        <time>2022-01-01T13:08:51.000Z</time>
      </trkpt>
      <trkpt lat="45.08433" lon="5.84451">
        <ele>1315.11</ele>
        <time>2022-01-01T13:09:01.000Z</time>
      </trkpt>
      <trkpt lat="45.08427" lon="5.84444">
        <ele>1322.18</ele>
        <time>2022-01-01T13:09:11.000Z</time>
      </trkpt>
      <trkpt lat="45.08411" lon="5.84409">
        <ele>1313.86</ele>
        <time>2022-01-01T13:09:41.000Z</time>
      </trkpt>
      <trkpt lat="45.08407" lon="5.84411">
        <ele>1318.81</ele>
        <time>2022-01-01T13:09:51.000Z</time>
      </trkpt>
      <trkpt lat="45.08407" lon="5.84393">
        <ele>1318.12</ele>
        <time>2022-01-01T13:10:01.000Z</time>
      </trkpt>
      <trkpt lat="45.08404" lon="5.84387">
        <ele>1317.62</ele>
        <time>2022-01-01T13:10:11.000Z</time>
      </trkpt>
      <trkpt lat="45.08399" lon="5.84379">
        <ele>1316.53</ele>
        <time>2022-01-01T13:10:21.000Z</time>
      </trkpt>
      <trkpt lat="45.08394" lon="5.8437">
        <ele>1320.21</ele>
        <time>2022-01-01T13:10:31.000Z</time>
      </trkpt>
      <trkpt lat="45.08388" lon="5.84364">
        <ele>1321.19</ele>
        <time>2022-01-01T13:10:41.000Z</time>
      </trkpt>
      <trkpt lat="45.0839" lon="5.84353">
        <ele>1321.4</ele>
        <time>2022-01-01T13:10:51.000Z</time>
      </trkpt>
      <trkpt lat="45.08395" lon="5.84346">
        <ele>1321.3</ele>
        <time>2022-01-01T13:11:01.000Z</time>
      </trkpt>
      <trkpt lat="45.08393" lon="5.84336">
        <ele>1323.41</ele>
        <time>2022-01-01T13:11:11.000Z</time>
      </trkpt>
      <trkpt lat="45.08393" lon="5.84334">
        <ele>1322.3</ele>
        <time>2022-01-01T13:11:21.000Z</time>
      </trkpt>
      <trkpt lat="45.08395" lon="5.84335">
        <ele>1320.17</ele>
        <time>2022-01-01T13:11:31.000Z</time>
      </trkpt>
      <trkpt lat="45.08393" lon="5.84335">
        <ele>1319.34</ele>
        <time>2022-01-01T13:13:45.000Z</time>
      </trkpt>
      <trkpt lat="45.0839" lon="5.84313">
        <ele>1314.06</ele>
        <time>2022-01-01T13:13:55.000Z</time>
      </trkpt>
      <trkpt lat="45.08382" lon="5.84292">
        <ele>1314.19</ele>
        <time>2022-01-01T13:14:05.000Z</time>
      </trkpt>
      <trkpt lat="45.08376" lon="5.84275">
        <ele>1314.18</ele>
        <time>2022-01-01T13:14:15.000Z</time>
      </trkpt>
      <trkpt lat="45.08374" lon="5.84253">
        <ele>1307.26</ele>
        <time>2022-01-01T13:14:25.000Z</time>
      </trkpt>
      <trkpt lat="45.08366" lon="5.84246">
        <ele>1306.27</ele>
        <time>2022-01-01T13:14:35.000Z</time>
      </trkpt>
      <trkpt lat="45.08362" lon="5.84235">
        <ele>1302.92</ele>
        <time>2022-01-01T13:14:45.000Z</time>
      </trkpt>
      <trkpt lat="45.08356" lon="5.84223">
        <ele>1300.14</ele>
        <time>2022-01-01T13:14:55.000Z</time>
      </trkpt>
      <trkpt lat="45.08358" lon="5.84211">
        <ele>1299.34</ele>
        <time>2022-01-01T13:15:05.000Z</time>
      </trkpt>
      <trkpt lat="45.08358" lon="5.84204">
        <ele>1298.7</ele>
        <time>2022-01-01T13:15:15.000Z</time>
      </trkpt>
      <trkpt lat="45.08347" lon="5.84196">
        <ele>1317.71</ele>
        <time>2022-01-01T13:15:25.000Z</time>
      </trkpt>
      <trkpt lat="45.08338" lon="5.84181">
        <ele>1323.78</ele>
        <time>2022-01-01T13:15:35.000Z</time>
      </trkpt>
      <trkpt lat="45.0833" lon="5.84177">
        <ele>1327.41</ele>
        <time>2022-01-01T13:15:45.000Z</time>
      </trkpt>
      <trkpt lat="45.08327" lon="5.84171">
        <ele>1325.65</ele>
        <time>2022-01-01T13:15:55.000Z</time>
      </trkpt>
      <trkpt lat="45.08326" lon="5.8416">
        <ele>1323.91</ele>
        <time>2022-01-01T13:16:05.000Z</time>
      </trkpt>
      <trkpt lat="45.08327" lon="5.84159">
        <ele>1324.94</ele>
        <time>2022-01-01T13:16:15.000Z</time>
      </trkpt>
      <trkpt lat="45.08326" lon="5.8416">
        <ele>1325.19</ele>
        <time>2022-01-01T13:16:34.000Z</time>
      </trkpt>
      <trkpt lat="45.08325" lon="5.8416">
        <ele>1322.07</ele>
        <time>2022-01-01T13:18:05.000Z</time>
      </trkpt>
      <trkpt lat="45.08313" lon="5.84147">
        <ele>1304.58</ele>
        <time>2022-01-01T13:18:15.000Z</time>
      </trkpt>
      <trkpt lat="45.08319" lon="5.84128">
        <ele>1306.77</ele>
        <time>2022-01-01T13:18:25.000Z</time>
      </trkpt>
      <trkpt lat="45.08315" lon="5.84108">
        <ele>1310.48</ele>
        <time>2022-01-01T13:18:35.000Z</time>
      </trkpt>
      <trkpt lat="45.0831" lon="5.84093">
        <ele>1311.56</ele>
        <time>2022-01-01T13:18:45.000Z</time>
      </trkpt>
      <trkpt lat="45.08299" lon="5.84085">
        <ele>1314.54</ele>
        <time>2022-01-01T13:18:55.000Z</time>
      </trkpt>
      <trkpt lat="45.08297" lon="5.84073">
        <ele>1313.44</ele>
        <time>2022-01-01T13:19:05.000Z</time>
      </trkpt>
      <trkpt lat="45.08293" lon="5.84067">
        <ele>1316.36</ele>
        <time>2022-01-01T13:19:15.000Z</time>
      </trkpt>
      <trkpt lat="45.08287" lon="5.84051">
        <ele>1318.12</ele>
        <time>2022-01-01T13:19:25.000Z</time>
      </trkpt>
      <trkpt lat="45.08289" lon="5.84042">
        <ele>1318.47</ele>
        <time>2022-01-01T13:19:35.000Z</time>
      </trkpt>
      <trkpt lat="45.08285" lon="5.84031">
        <ele>1316.88</ele>
        <time>2022-01-01T13:19:45.000Z</time>
      </trkpt>
      <trkpt lat="45.08278" lon="5.84015">
        <ele>1318.16</ele>
        <time>2022-01-01T13:19:55.000Z</time>
      </trkpt>
      <trkpt lat="45.08267" lon="5.84006">
        <ele>1320.18</ele>
        <time>2022-01-01T13:20:05.000Z</time>
      </trkpt>
      <trkpt lat="45.08259" lon="5.83998">
        <ele>1317.92</ele>
        <time>2022-01-01T13:20:15.000Z</time>
      </trkpt>
      <trkpt lat="45.08256" lon="5.83987">
        <ele>1311.52</ele>
        <time>2022-01-01T13:20:25.000Z</time>
      </trkpt>
      <trkpt lat="45.08242" lon="5.83979">
        <ele>1311.77</ele>
        <time>2022-01-01T13:20:35.000Z</time>
      </trkpt>
      <trkpt lat="45.08232" lon="5.8397">
        <ele>1314.72</ele>
        <time>2022-01-01T13:20:45.000Z</time>
      </trkpt>
      <trkpt lat="45.08227" lon="5.8396">
        <ele>1313.03</ele>
        <time>2022-01-01T13:20:55.000Z</time>
      </trkpt>
      <trkpt lat="45.0823" lon="5.83948">
        <ele>1308.29</ele>
        <time>2022-01-01T13:21:05.000Z</time>
      </trkpt>
      <trkpt lat="45.08226" lon="5.8393">
        <ele>1314.45</ele>
        <time>2022-01-01T13:21:15.000Z</time>
      </trkpt>
      <trkpt lat="45.08214" lon="5.83919">
        <ele>1315.03</ele>
        <time>2022-01-01T13:21:25.000Z</time>
      </trkpt>
      <trkpt lat="45.08213" lon="5.83907">
        <ele>1316.94</ele>
        <time>2022-01-01T13:21:35.000Z</time>
      </trkpt>
      <trkpt lat="45.08211" lon="5.83895">
        <ele>1315.04</ele>
        <time>2022-01-01T13:21:45.000Z</time>
      </trkpt>
      <trkpt lat="45.08208" lon="5.83879">
        <ele>1312.39</ele>
        <time>2022-01-01T13:21:55.000Z</time>
      </trkpt>
      <trkpt lat="45.08206" lon="5.83867">
        <ele>1310.4</ele>
        <time>2022-01-01T13:22:05.000Z</time>
      </trkpt>
      <trkpt lat="45.08205" lon="5.83854">
        <ele>1310.42</ele>
        <time>2022-01-01T13:22:15.000Z</time>
      </trkpt>
      <trkpt lat="45.08197" lon="5.83845">
        <ele>1314.57</ele>
        <time>2022-01-01T13:22:25.000Z</time>
      </trkpt>
      <trkpt lat="45.08189" lon="5.83839">
        <ele>1314.39</ele>
        <time>2022-01-01T13:22:35.000Z</time>
      </trkpt>
      <trkpt lat="45.08185" lon="5.83823">
        <ele>1313.15</ele>
        <time>2022-01-01T13:22:45.000Z</time>
      </trkpt>
      <trkpt lat="45.08182" lon="5.83818">
        <ele>1313.31</ele>
        <time>2022-01-01T13:22:55.000Z</time>
      </trkpt>
      <trkpt lat="45.08176" lon="5.83807">
        <ele>1317.52</ele>
        <time>2022-01-01T13:23:05.000Z</time>
      </trkpt>
      <trkpt lat="45.08176" lon="5.83796">
        <ele>1318.26</ele>
        <time>2022-01-01T13:23:15.000Z</time>
      </trkpt>
      <trkpt lat="45.08178" lon="5.83794">
        <ele>1317.89</ele>
        <time>2022-01-01T13:23:25.000Z</time>
      </trkpt>
      <trkpt lat="45.08176" lon="5.83798">
        <ele>1321.6</ele>
        <time>2022-01-01T13:23:35.000Z</time>
      </trkpt>
      <trkpt lat="45.08171" lon="5.83786">
        <ele>1320.7</ele>
        <time>2022-01-01T13:23:45.000Z</time>
      </trkpt>
      <trkpt lat="45.08169" lon="5.83788">
        <ele>1314.45</ele>
        <time>2022-01-01T13:23:55.000Z</time>
      </trkpt>
      <trkpt lat="45.08171" lon="5.83782">
        <ele>1316.94</ele>
        <time>2022-01-01T13:24:05.000Z</time>
      </trkpt>
      <trkpt lat="45.0817" lon="5.8378">
        <ele>1316.99</ele>
        <time>2022-01-01T13:24:15.000Z</time>
      </trkpt>
      <trkpt lat="45.08163" lon="5.83769">
        <ele>1312.07</ele>
        <time>2022-01-01T13:24:25.000Z</time>
      </trkpt>
      <trkpt lat="45.0816" lon="5.83755">
        <ele>1310.15</ele>
        <time>2022-01-01T13:24:35.000Z</time>
      </trkpt>
      <trkpt lat="45.08161" lon="5.83756">
        <ele>1307.9</ele>
        <time>2022-01-01T13:24:45.000Z</time>
      </trkpt>
      <trkpt lat="45.08167" lon="5.83753">
        <ele>1306.75</ele>
        <time>2022-01-01T13:24:55.000Z</time>
      </trkpt>
      <trkpt lat="45.08169" lon="5.83751">
        <ele>1310.27</ele>
        <time>2022-01-01T13:25:05.000Z</time>
      </trkpt>
      <trkpt lat="45.08168" lon="5.83751">
        <ele>1310.87</ele>
        <time>2022-01-01T13:25:15.000Z</time>
      </trkpt>
      <trkpt lat="45.08167" lon="5.8375">
        <ele>1311.78</ele>
        <time>2022-01-01T13:25:34.000Z</time>
      </trkpt>
      <trkpt lat="45.08166" lon="5.83733">
        <ele>1311.06</ele>
        <time>2022-01-01T13:25:44.000Z</time>
      </trkpt>
      <trkpt lat="45.08161" lon="5.83727">
        <ele>1316.48</ele>
        <time>2022-01-01T13:25:54.000Z</time>
      </trkpt>
      <trkpt lat="45.08162" lon="5.83722">
        <ele>1313.29</ele>
        <time>2022-01-01T13:26:04.000Z</time>
      </trkpt>
      <trkpt lat="45.08159" lon="5.83721">
        <ele>1311.55</ele>
        <time>2022-01-01T13:26:14.000Z</time>
      </trkpt>
      <trkpt lat="45.08159" lon="5.8372">
        <ele>1310.01</ele>
        <time>2022-01-01T13:26:29.000Z</time>
      </trkpt>
      <trkpt lat="45.08151" lon="5.83709">
        <ele>1312.26</ele>
        <time>2022-01-01T13:26:39.000Z</time>
      </trkpt>
      <trkpt lat="45.08143" lon="5.83699">
        <ele>1313.25</ele>
        <time>2022-01-01T13:26:49.000Z</time>
      </trkpt>
      <trkpt lat="45.08142" lon="5.83697">
        <ele>1310.1</ele>
        <time>2022-01-01T13:26:59.000Z</time>
      </trkpt>
      <trkpt lat="45.08144" lon="5.83697">
        <ele>1307.94</ele>
        <time>2022-01-01T13:27:09.000Z</time>
      </trkpt>
      <trkpt lat="45.08144" lon="5.83695">
        <ele>1306.97</ele>
        <time>2022-01-01T13:27:42.000Z</time>
      </trkpt>
      <trkpt lat="45.08137" lon="5.83688">
        <ele>1306.63</ele>
        <time>2022-01-01T13:27:52.000Z</time>
      </trkpt>
      <trkpt lat="45.08139" lon="5.83689">
        <ele>1305.85</ele>
        <time>2022-01-01T13:28:02.000Z</time>
      </trkpt>
      <trkpt lat="45.0814" lon="5.8369">
        <ele>1305.39</ele>
        <time>2022-01-01T13:28:50.000Z</time>
      </trkpt>
      <trkpt lat="45.08139" lon="5.83688">
        <ele>1305.18</ele>
        <time>2022-01-01T13:29:29.000Z</time>
      </trkpt>
      <trkpt lat="45.08131" lon="5.83668">
        <ele>1306.91</ele>
        <time>2022-01-01T13:29:39.000Z</time>
      </trkpt>
      <trkpt lat="45.08124" lon="5.83656">
        <ele>1306.79</ele>
        <time>2022-01-01T13:29:49.000Z</time>
      </trkpt>
      <trkpt lat="45.08117" lon="5.83646">
        <ele>1304.24</ele>
        <time>2022-01-01T13:29:59.000Z</time>
      </trkpt>
      <trkpt lat="45.08118" lon="5.83635">
        <ele>1305.82</ele>
        <time>2022-01-01T13:30:09.000Z</time>
      </trkpt>
      <trkpt lat="45.08109" lon="5.8363">
        <ele>1308.26</ele>
        <time>2022-01-01T13:30:19.000Z</time>
      </trkpt>
      <trkpt lat="45.0811" lon="5.83631">
        <ele>1307.2</ele>
        <time>2022-01-01T13:30:29.000Z</time>
      </trkpt>
      <trkpt lat="45.08109" lon="5.8363">
        <ele>1308.59</ele>
        <time>2022-01-01T13:30:40.000Z</time>
      </trkpt>
      <trkpt lat="45.08108" lon="5.8363">
        <ele>1308.72</ele>
        <time>2022-01-01T13:31:49.000Z</time>
      </trkpt>
      <trkpt lat="45.08107" lon="5.83629">
        <ele>1308.72</ele>
        <time>2022-01-01T13:32:08.000Z</time>
      </trkpt>
      <trkpt lat="45.08092" lon="5.83616">
        <ele>1309.2</ele>
        <time>2022-01-01T13:32:18.000Z</time>
      </trkpt>
      <trkpt lat="45.08093" lon="5.8361">
        <ele>1308.9</ele>
        <time>2022-01-01T13:32:28.000Z</time>
      </trkpt>
      <trkpt lat="45.08087" lon="5.836">
        <ele>1312.04</ele>
        <time>2022-01-01T13:32:38.000Z</time>
      </trkpt>
      <trkpt lat="45.08076" lon="5.83573">
        <ele>1311.06</ele>
        <time>2022-01-01T13:32:48.000Z</time>
      </trkpt>
      <trkpt lat="45.08064" lon="5.83568">
        <ele>1302.65</ele>
        <time>2022-01-01T13:32:58.000Z</time>
      </trkpt>
      <trkpt lat="45.08063" lon="5.83568">
        <ele>1301.6</ele>
        <time>2022-01-01T13:33:08.000Z</time>
      </trkpt>
      <trkpt lat="45.0805" lon="5.83555">
        <ele>1299.02</ele>
        <time>2022-01-01T13:33:18.000Z</time>
      </trkpt>
      <trkpt lat="45.08038" lon="5.83538">
        <ele>1293.09</ele>
        <time>2022-01-01T13:33:28.000Z</time>
      </trkpt>
      <trkpt lat="45.08027" lon="5.83524">
        <ele>1296.85</ele>
        <time>2022-01-01T13:33:38.000Z</time>
      </trkpt>
      <trkpt lat="45.08018" lon="5.83517">
        <ele>1295.15</ele>
        <time>2022-01-01T13:33:48.000Z</time>
      </trkpt>
      <trkpt lat="45.08007" lon="5.83513">
        <ele>1293.53</ele>
        <time>2022-01-01T13:33:58.000Z</time>
      </trkpt>
      <trkpt lat="45.07998" lon="5.83505">
        <ele>1290.21</ele>
        <time>2022-01-01T13:34:08.000Z</time>
      </trkpt>
      <trkpt lat="45.08003" lon="5.835">
        <ele>1287.41</ele>
        <time>2022-01-01T13:34:18.000Z</time>
      </trkpt>
      <trkpt lat="45.08002" lon="5.83499">
        <ele>1287.16</ele>
        <time>2022-01-01T13:34:28.000Z</time>
      </trkpt>
      <trkpt lat="45.07993" lon="5.83493">
        <ele>1283.29</ele>
        <time>2022-01-01T13:34:38.000Z</time>
      </trkpt>
      <trkpt lat="45.07982" lon="5.83476">
        <ele>1280.11</ele>
        <time>2022-01-01T13:34:48.000Z</time>
      </trkpt>
      <trkpt lat="45.07969" lon="5.83464">
        <ele>1276.09</ele>
        <time>2022-01-01T13:34:58.000Z</time>
      </trkpt>
      <trkpt lat="45.07959" lon="5.83459">
        <ele>1272.29</ele>
        <time>2022-01-01T13:35:08.000Z</time>
      </trkpt>
      <trkpt lat="45.07964" lon="5.83448">
        <ele>1270.34</ele>
        <time>2022-01-01T13:35:18.000Z</time>
      </trkpt>
      <trkpt lat="45.07965" lon="5.83443">
        <ele>1272.01</ele>
        <time>2022-01-01T13:35:28.000Z</time>
      </trkpt>
      <trkpt lat="45.07961" lon="5.83441">
        <ele>1272.28</ele>
        <time>2022-01-01T13:35:38.000Z</time>
      </trkpt>
      <trkpt lat="45.0796" lon="5.83441">
        <ele>1272.14</ele>
        <time>2022-01-01T13:35:48.000Z</time>
      </trkpt>
      <trkpt lat="45.07957" lon="5.83437">
        <ele>1271.21</ele>
        <time>2022-01-01T13:35:58.000Z</time>
      </trkpt>
      <trkpt lat="45.07954" lon="5.83436">
        <ele>1269.58</ele>
        <time>2022-01-01T13:36:08.000Z</time>
      </trkpt>
      <trkpt lat="45.07954" lon="5.83435">
        <ele>1268</ele>
        <time>2022-01-01T13:36:30.000Z</time>
      </trkpt>
      <trkpt lat="45.0795" lon="5.83424">
        <ele>1269.53</ele>
        <time>2022-01-01T13:36:40.000Z</time>
      </trkpt>
      <trkpt lat="45.0794" lon="5.83416">
        <ele>1269.2</ele>
        <time>2022-01-01T13:36:50.000Z</time>
      </trkpt>
      <trkpt lat="45.07938" lon="5.83403">
        <ele>1272.02</ele>
        <time>2022-01-01T13:37:00.000Z</time>
      </trkpt>
      <trkpt lat="45.07935" lon="5.83392">
        <ele>1273.2</ele>
        <time>2022-01-01T13:37:10.000Z</time>
      </trkpt>
      <trkpt lat="45.07925" lon="5.83395">
        <ele>1272.59</ele>
        <time>2022-01-01T13:37:20.000Z</time>
      </trkpt>
      <trkpt lat="45.07925" lon="5.83393">
        <ele>1269.11</ele>
        <time>2022-01-01T13:37:30.000Z</time>
      </trkpt>
      <trkpt lat="45.07924" lon="5.83393">
        <ele>1270.6</ele>
        <time>2022-01-01T13:37:46.000Z</time>
      </trkpt>
      <trkpt lat="45.07924" lon="5.83392">
        <ele>1271.19</ele>
        <time>2022-01-01T13:39:48.000Z</time>
      </trkpt>
      <trkpt lat="45.07924" lon="5.83383">
        <ele>1274.07</ele>
        <time>2022-01-01T13:39:58.000Z</time>
      </trkpt>
      <trkpt lat="45.07923" lon="5.83366">
        <ele>1272.77</ele>
        <time>2022-01-01T13:40:08.000Z</time>
      </trkpt>
      <trkpt lat="45.07921" lon="5.83353">
        <ele>1269.14</ele>
        <time>2022-01-01T13:40:18.000Z</time>
      </trkpt>
      <trkpt lat="45.07922" lon="5.83345">
        <ele>1261.64</ele>
        <time>2022-01-01T13:40:28.000Z</time>
      </trkpt>
      <trkpt lat="45.0792" lon="5.83339">
        <ele>1264.22</ele>
        <time>2022-01-01T13:40:38.000Z</time>
      </trkpt>
      <trkpt lat="45.07916" lon="5.83332">
        <ele>1264.54</ele>
        <time>2022-01-01T13:40:48.000Z</time>
      </trkpt>
      <trkpt lat="45.07915" lon="5.83329">
        <ele>1267.14</ele>
        <time>2022-01-01T13:40:58.000Z</time>
      </trkpt>
      <trkpt lat="45.07913" lon="5.83321">
        <ele>1268.68</ele>
        <time>2022-01-01T13:41:08.000Z</time>
      </trkpt>
      <trkpt lat="45.0791" lon="5.83318">
        <ele>1273.08</ele>
        <time>2022-01-01T13:41:18.000Z</time>
      </trkpt>
      <trkpt lat="45.07908" lon="5.83312">
        <ele>1278.12</ele>
        <time>2022-01-01T13:41:28.000Z</time>
      </trkpt>
      <trkpt lat="45.07898" lon="5.83295">
        <ele>1280.7</ele>
        <time>2022-01-01T13:41:38.000Z</time>
      </trkpt>
      <trkpt lat="45.07895" lon="5.83282">
        <ele>1275.84</ele>
        <time>2022-01-01T13:41:48.000Z</time>
      </trkpt>
      <trkpt lat="45.07895" lon="5.83276">
        <ele>1275.06</ele>
        <time>2022-01-01T13:41:58.000Z</time>
      </trkpt>
      <trkpt lat="45.07894" lon="5.83272">
        <ele>1276.49</ele>
        <time>2022-01-01T13:42:08.000Z</time>
      </trkpt>
      <trkpt lat="45.07891" lon="5.83269">
        <ele>1278.58</ele>
        <time>2022-01-01T13:42:18.000Z</time>
      </trkpt>
      <trkpt lat="45.0789" lon="5.83267">
        <ele>1277.88</ele>
        <time>2022-01-01T13:42:28.000Z</time>
      </trkpt>
      <trkpt lat="45.0789" lon="5.83266">
        <ele>1278.41</ele>
        <time>2022-01-01T13:42:52.000Z</time>
      </trkpt>
      <trkpt lat="45.07886" lon="5.83249">
        <ele>1275.55</ele>
        <time>2022-01-01T13:43:02.000Z</time>
      </trkpt>
      <trkpt lat="45.07883" lon="5.83243">
        <ele>1278.35</ele>
        <time>2022-01-01T13:43:12.000Z</time>
      </trkpt>
      <trkpt lat="45.07883" lon="5.83242">
        <ele>1277.57</ele>
        <time>2022-01-01T13:43:22.000Z</time>
      </trkpt>
      <trkpt lat="45.07884" lon="5.83235">
        <ele>1274.15</ele>
        <time>2022-01-01T13:43:32.000Z</time>
      </trkpt>
      <trkpt lat="45.07887" lon="5.83223">
        <ele>1275.83</ele>
        <time>2022-01-01T13:43:42.000Z</time>
      </trkpt>
      <trkpt lat="45.07885" lon="5.83218">
        <ele>1278.57</ele>
        <time>2022-01-01T13:43:52.000Z</time>
      </trkpt>
      <trkpt lat="45.07884" lon="5.83213">
        <ele>1279.21</ele>
        <time>2022-01-01T13:44:02.000Z</time>
      </trkpt>
      <trkpt lat="45.07881" lon="5.83199">
        <ele>1280.59</ele>
        <time>2022-01-01T13:44:12.000Z</time>
      </trkpt>
      <trkpt lat="45.07878" lon="5.83191">
        <ele>1280.93</ele>
        <time>2022-01-01T13:44:22.000Z</time>
      </trkpt>
      <trkpt lat="45.07876" lon="5.83179">
        <ele>1275.93</ele>
        <time>2022-01-01T13:44:32.000Z</time>
      </trkpt>
      <trkpt lat="45.07876" lon="5.83165">
        <ele>1278.86</ele>
        <time>2022-01-01T13:44:42.000Z</time>
      </trkpt>
      <trkpt lat="45.07875" lon="5.8315">
        <ele>1285.44</ele>
        <time>2022-01-01T13:44:52.000Z</time>
      </trkpt>
      <trkpt lat="45.07873" lon="5.8314">
        <ele>1292.96</ele>
        <time>2022-01-01T13:45:02.000Z</time>
      </trkpt>
      <trkpt lat="45.07872" lon="5.83129">
        <ele>1293.17</ele>
        <time>2022-01-01T13:45:12.000Z</time>
      </trkpt>
      <trkpt lat="45.07866" lon="5.83124">
        <ele>1294.27</ele>
        <time>2022-01-01T13:45:22.000Z</time>
      </trkpt>
      <trkpt lat="45.07865" lon="5.83123">
        <ele>1294.95</ele>
        <time>2022-01-01T13:45:32.000Z</time>
      </trkpt>
      <trkpt lat="45.07865" lon="5.8312">
        <ele>1294.63</ele>
        <time>2022-01-01T13:45:45.000Z</time>
      </trkpt>
      <trkpt lat="45.07861" lon="5.83107">
        <ele>1297.15</ele>
        <time>2022-01-01T13:45:55.000Z</time>
      </trkpt>
      <trkpt lat="45.07862" lon="5.83094">
        <ele>1298.51</ele>
        <time>2022-01-01T13:46:05.000Z</time>
      </trkpt>
      <trkpt lat="45.0786" lon="5.83087">
        <ele>1301.19</ele>
        <time>2022-01-01T13:46:15.000Z</time>
      </trkpt>
      <trkpt lat="45.07859" lon="5.83078">
        <ele>1299.12</ele>
        <time>2022-01-01T13:46:25.000Z</time>
      </trkpt>
      <trkpt lat="45.07851" lon="5.83073">
        <ele>1295.91</ele>
        <time>2022-01-01T13:46:35.000Z</time>
      </trkpt>
      <trkpt lat="45.07855" lon="5.83062">
        <ele>1300.01</ele>
        <time>2022-01-01T13:46:45.000Z</time>
      </trkpt>
      <trkpt lat="45.0785" lon="5.83049">
        <ele>1300.71</ele>
        <time>2022-01-01T13:46:55.000Z</time>
      </trkpt>
      <trkpt lat="45.07847" lon="5.8304">
        <ele>1305.98</ele>
        <time>2022-01-01T13:47:05.000Z</time>
      </trkpt>
      <trkpt lat="45.07841" lon="5.83032">
        <ele>1307.76</ele>
        <time>2022-01-01T13:47:15.000Z</time>
      </trkpt>
      <trkpt lat="45.07846" lon="5.83029">
        <ele>1309.06</ele>
        <time>2022-01-01T13:47:25.000Z</time>
      </trkpt>
      <trkpt lat="45.0784" lon="5.83021">
        <ele>1308.61</ele>
        <time>2022-01-01T13:47:35.000Z</time>
      </trkpt>
      <trkpt lat="45.07837" lon="5.8302">
        <ele>1308.34</ele>
        <time>2022-01-01T13:47:45.000Z</time>
      </trkpt>
      <trkpt lat="45.07836" lon="5.8302">
        <ele>1309.12</ele>
        <time>2022-01-01T13:47:58.000Z</time>
      </trkpt>
      <trkpt lat="45.07828" lon="5.83009">
        <ele>1311.86</ele>
        <time>2022-01-01T13:48:08.000Z</time>
      </trkpt>
      <trkpt lat="45.07823" lon="5.82996">
        <ele>1309.84</ele>
        <time>2022-01-01T13:48:18.000Z</time>
      </trkpt>
      <trkpt lat="45.07824" lon="5.82981">
        <ele>1309.07</ele>
        <time>2022-01-01T13:48:28.000Z</time>
      </trkpt>
      <trkpt lat="45.07819" lon="5.82971">
        <ele>1314.68</ele>
        <time>2022-01-01T13:48:38.000Z</time>
      </trkpt>
      <trkpt lat="45.07815" lon="5.82966">
        <ele>1317.29</ele>
        <time>2022-01-01T13:48:48.000Z</time>
      </trkpt>
      <trkpt lat="45.07812" lon="5.82956">
        <ele>1312.04</ele>
        <time>2022-01-01T13:48:58.000Z</time>
      </trkpt>
      <trkpt lat="45.07809" lon="5.8295">
        <ele>1310.77</ele>
        <time>2022-01-01T13:49:08.000Z</time>
      </trkpt>
      <trkpt lat="45.07809" lon="5.82952">
        <ele>1309.18</ele>
        <time>2022-01-01T13:49:18.000Z</time>
      </trkpt>
      <trkpt lat="45.07809" lon="5.8295">
        <ele>1310.28</ele>
        <time>2022-01-01T13:49:28.000Z</time>
      </trkpt>
      <trkpt lat="45.07809" lon="5.82947">
        <ele>1311.65</ele>
        <time>2022-01-01T13:49:38.000Z</time>
      </trkpt>
      <trkpt lat="45.07807" lon="5.82929">
        <ele>1320.48</ele>
        <time>2022-01-01T13:49:48.000Z</time>
      </trkpt>
      <trkpt lat="45.07807" lon="5.82928">
        <ele>1318.84</ele>
        <time>2022-01-01T13:50:05.000Z</time>
      </trkpt>
      <trkpt lat="45.07805" lon="5.82919">
        <ele>1310.13</ele>
        <time>2022-01-01T13:50:15.000Z</time>
      </trkpt>
      <trkpt lat="45.07799" lon="5.82906">
        <ele>1309.15</ele>
        <time>2022-01-01T13:50:25.000Z</time>
      </trkpt>
      <trkpt lat="45.078" lon="5.82897">
        <ele>1311.13</ele>
        <time>2022-01-01T13:50:35.000Z</time>
      </trkpt>
      <trkpt lat="45.07797" lon="5.82885">
        <ele>1311.27</ele>
        <time>2022-01-01T13:50:45.000Z</time>
      </trkpt>
      <trkpt lat="45.07788" lon="5.82876">
        <ele>1316.28</ele>
        <time>2022-01-01T13:50:55.000Z</time>
      </trkpt>
      <trkpt lat="45.07786" lon="5.8287">
        <ele>1319.35</ele>
        <time>2022-01-01T13:51:05.000Z</time>
      </trkpt>
      <trkpt lat="45.07784" lon="5.82863">
        <ele>1318.53</ele>
        <time>2022-01-01T13:51:15.000Z</time>
      </trkpt>
      <trkpt lat="45.0778" lon="5.82853">
        <ele>1320.83</ele>
        <time>2022-01-01T13:51:25.000Z</time>
      </trkpt>
      <trkpt lat="45.07778" lon="5.82844">
        <ele>1323.33</ele>
        <time>2022-01-01T13:51:35.000Z</time>
      </trkpt>
      <trkpt lat="45.07777" lon="5.82834">
        <ele>1322.15</ele>
        <time>2022-01-01T13:51:45.000Z</time>
      </trkpt>
      <trkpt lat="45.07772" lon="5.82826">
        <ele>1323.26</ele>
        <time>2022-01-01T13:51:55.000Z</time>
      </trkpt>
      <trkpt lat="45.07771" lon="5.82827">
        <ele>1322.6</ele>
        <time>2022-01-01T13:52:07.000Z</time>
      </trkpt>
      <trkpt lat="45.07771" lon="5.82825">
        <ele>1322.31</ele>
        <time>2022-01-01T13:52:32.000Z</time>
      </trkpt>
      <trkpt lat="45.07769" lon="5.82815">
        <ele>1326.24</ele>
        <time>2022-01-01T13:52:42.000Z</time>
      </trkpt>
      <trkpt lat="45.07767" lon="5.8281">
        <ele>1327.69</ele>
        <time>2022-01-01T13:52:52.000Z</time>
      </trkpt>
      <trkpt lat="45.07767" lon="5.82809">
        <ele>1326.79</ele>
        <time>2022-01-01T13:53:07.000Z</time>
      </trkpt>
      <trkpt lat="45.07762" lon="5.8279">
        <ele>1318.9</ele>
        <time>2022-01-01T13:53:17.000Z</time>
      </trkpt>
      <trkpt lat="45.07756" lon="5.82773">
        <ele>1317.26</ele>
        <time>2022-01-01T13:53:27.000Z</time>
      </trkpt>
      <trkpt lat="45.07754" lon="5.82764">
        <ele>1319.57</ele>
        <time>2022-01-01T13:53:37.000Z</time>
      </trkpt>
      <trkpt lat="45.07754" lon="5.82754">
        <ele>1323</ele>
        <time>2022-01-01T13:53:47.000Z</time>
      </trkpt>
      <trkpt lat="45.07753" lon="5.82755">
        <ele>1327.31</ele>
        <time>2022-01-01T13:53:57.000Z</time>
      </trkpt>
      <trkpt lat="45.07752" lon="5.82753">
        <ele>1327.66</ele>
        <time>2022-01-01T13:54:26.000Z</time>
      </trkpt>
      <trkpt lat="45.07748" lon="5.82741">
        <ele>1325.43</ele>
        <time>2022-01-01T13:54:36.000Z</time>
      </trkpt>
      <trkpt lat="45.07746" lon="5.82737">
        <ele>1327.98</ele>
        <time>2022-01-01T13:54:46.000Z</time>
      </trkpt>
      <trkpt lat="45.07745" lon="5.82732">
        <ele>1329.59</ele>
        <time>2022-01-01T13:54:56.000Z</time>
      </trkpt>
      <trkpt lat="45.07742" lon="5.82726">
        <ele>1333.62</ele>
        <time>2022-01-01T13:55:06.000Z</time>
      </trkpt>
      <trkpt lat="45.07741" lon="5.82723">
        <ele>1335.32</ele>
        <time>2022-01-01T13:55:16.000Z</time>
      </trkpt>
      <trkpt lat="45.07742" lon="5.8272">
        <ele>1337.12</ele>
        <time>2022-01-01T13:55:28.000Z</time>
      </trkpt>
      <trkpt lat="45.0774" lon="5.82712">
        <ele>1337.4</ele>
        <time>2022-01-01T13:55:38.000Z</time>
      </trkpt>
      <trkpt lat="45.07741" lon="5.8271">
        <ele>1338.54</ele>
        <time>2022-01-01T13:55:51.000Z</time>
      </trkpt>
      <trkpt lat="45.07742" lon="5.82694">
        <ele>1335.74</ele>
        <time>2022-01-01T13:56:01.000Z</time>
      </trkpt>
      <trkpt lat="45.07745" lon="5.82682">
        <ele>1333.31</ele>
        <time>2022-01-01T13:56:11.000Z</time>
      </trkpt>
      <trkpt lat="45.07745" lon="5.82672">
        <ele>1336.56</ele>
        <time>2022-01-01T13:56:21.000Z</time>
      </trkpt>
      <trkpt lat="45.07744" lon="5.82666">
        <ele>1341.55</ele>
        <time>2022-01-01T13:56:31.000Z</time>
      </trkpt>
      <trkpt lat="45.07746" lon="5.82652">
        <ele>1343.14</ele>
        <time>2022-01-01T13:56:41.000Z</time>
      </trkpt>
      <trkpt lat="45.07748" lon="5.82637">
        <ele>1340.34</ele>
        <time>2022-01-01T13:56:51.000Z</time>
      </trkpt>
      <trkpt lat="45.07752" lon="5.82627">
        <ele>1338.98</ele>
        <time>2022-01-01T13:57:01.000Z</time>
      </trkpt>
      <trkpt lat="45.07745" lon="5.82618">
        <ele>1342.52</ele>
        <time>2022-01-01T13:57:11.000Z</time>
      </trkpt>
      <trkpt lat="45.0773" lon="5.82612">
        <ele>1342.88</ele>
        <time>2022-01-01T13:57:21.000Z</time>
      </trkpt>
      <trkpt lat="45.07732" lon="5.82609">
        <ele>1340.23</ele>
        <time>2022-01-01T13:57:31.000Z</time>
      </trkpt>
      <trkpt lat="45.07735" lon="5.82602">
        <ele>1336.26</ele>
        <time>2022-01-01T13:57:41.000Z</time>
      </trkpt>
      <trkpt lat="45.07727" lon="5.82597">
        <ele>1339.47</ele>
        <time>2022-01-01T13:57:51.000Z</time>
      </trkpt>
      <trkpt lat="45.07723" lon="5.82593">
        <ele>1339.48</ele>
        <time>2022-01-01T13:58:01.000Z</time>
      </trkpt>
      <trkpt lat="45.07718" lon="5.82583">
        <ele>1344.98</ele>
        <time>2022-01-01T13:58:11.000Z</time>
      </trkpt>
      <trkpt lat="45.07713" lon="5.82576">
        <ele>1350.27</ele>
        <time>2022-01-01T13:58:21.000Z</time>
      </trkpt>
      <trkpt lat="45.07713" lon="5.82575">
        <ele>1351.22</ele>
        <time>2022-01-01T13:58:33.000Z</time>
      </trkpt>
      <trkpt lat="45.07709" lon="5.82569">
        <ele>1351.74</ele>
        <time>2022-01-01T13:58:43.000Z</time>
      </trkpt>
      <trkpt lat="45.07702" lon="5.82561">
        <ele>1353.54</ele>
        <time>2022-01-01T13:58:53.000Z</time>
      </trkpt>
      <trkpt lat="45.07701" lon="5.82554">
        <ele>1358.22</ele>
        <time>2022-01-01T13:59:03.000Z</time>
      </trkpt>
      <trkpt lat="45.07703" lon="5.82552">
        <ele>1356.31</ele>
        <time>2022-01-01T13:59:13.000Z</time>
      </trkpt>
      <trkpt lat="45.07703" lon="5.82551">
        <ele>1356.36</ele>
        <time>2022-01-01T13:59:23.000Z</time>
      </trkpt>
      <trkpt lat="45.07698" lon="5.82542">
        <ele>1354.27</ele>
        <time>2022-01-01T13:59:33.000Z</time>
      </trkpt>
      <trkpt lat="45.07696" lon="5.8253">
        <ele>1353.1</ele>
        <time>2022-01-01T13:59:43.000Z</time>
      </trkpt>
      <trkpt lat="45.07697" lon="5.82526">
        <ele>1352.77</ele>
        <time>2022-01-01T13:59:53.000Z</time>
      </trkpt>
      <trkpt lat="45.07698" lon="5.82521">
        <ele>1356.29</ele>
        <time>2022-01-01T14:00:03.000Z</time>
      </trkpt>
      <trkpt lat="45.07699" lon="5.8253">
        <ele>1356.46</ele>
        <time>2022-01-01T14:00:13.000Z</time>
      </trkpt>
      <trkpt lat="45.07702" lon="5.82537">
        <ele>1356.36</ele>
        <time>2022-01-01T14:00:23.000Z</time>
      </trkpt>
      <trkpt lat="45.07703" lon="5.82541">
        <ele>1354.67</ele>
        <time>2022-01-01T14:00:33.000Z</time>
      </trkpt>
      <trkpt lat="45.07704" lon="5.82545">
        <ele>1355.33</ele>
        <time>2022-01-01T14:00:43.000Z</time>
      </trkpt>
      <trkpt lat="45.07703" lon="5.82545">
        <ele>1353.38</ele>
        <time>2022-01-01T14:01:19.000Z</time>
      </trkpt>
      <trkpt lat="45.077" lon="5.82545">
        <ele>1354.99</ele>
        <time>2022-01-01T14:01:29.000Z</time>
      </trkpt>
      <trkpt lat="45.07699" lon="5.82544">
        <ele>1355.61</ele>
        <time>2022-01-01T14:02:23.000Z</time>
      </trkpt>
      <trkpt lat="45.077" lon="5.8255">
        <ele>1361.27</ele>
        <time>2022-01-01T14:02:33.000Z</time>
      </trkpt>
      <trkpt lat="45.07702" lon="5.82546">
        <ele>1361.52</ele>
        <time>2022-01-01T14:02:43.000Z</time>
      </trkpt>
      <trkpt lat="45.07701" lon="5.82544">
        <ele>1362.34</ele>
        <time>2022-01-01T14:02:53.000Z</time>
      </trkpt>
      <trkpt lat="45.07701" lon="5.82544">
        <ele>1361.6</ele>
        <time>2022-01-01T14:03:45.000Z</time>
      </trkpt>
      <trkpt lat="45.077" lon="5.82542">
        <ele>1361.45</ele>
        <time>2022-01-01T14:05:35.000Z</time>
      </trkpt>
      <trkpt lat="45.07701" lon="5.82528">
        <ele>1358.6</ele>
        <time>2022-01-01T14:05:45.000Z</time>
      </trkpt>
      <trkpt lat="45.07703" lon="5.8252">
        <ele>1357.59</ele>
        <time>2022-01-01T14:05:55.000Z</time>
      </trkpt>
      <trkpt lat="45.07701" lon="5.82515">
        <ele>1355.45</ele>
        <time>2022-01-01T14:06:05.000Z</time>
      </trkpt>
      <trkpt lat="45.07707" lon="5.82508">
        <ele>1351.96</ele>
        <time>2022-01-01T14:06:15.000Z</time>
      </trkpt>
      <trkpt lat="45.07714" lon="5.82503">
        <ele>1353.53</ele>
        <time>2022-01-01T14:06:25.000Z</time>
      </trkpt>
      <trkpt lat="45.07723" lon="5.82501">
        <ele>1355.34</ele>
        <time>2022-01-01T14:06:35.000Z</time>
      </trkpt>
      <trkpt lat="45.0773" lon="5.82503">
        <ele>1352.95</ele>
        <time>2022-01-01T14:06:45.000Z</time>
      </trkpt>
      <trkpt lat="45.07737" lon="5.8249">
        <ele>1361.49</ele>
        <time>2022-01-01T14:06:55.000Z</time>
      </trkpt>
      <trkpt lat="45.0774" lon="5.82488">
        <ele>1360.74</ele>
        <time>2022-01-01T14:07:05.000Z</time>
      </trkpt>
      <trkpt lat="45.07741" lon="5.82486">
        <ele>1359.59</ele>
        <time>2022-01-01T14:07:15.000Z</time>
      </trkpt>
      <trkpt lat="45.07744" lon="5.82487">
        <ele>1358.3</ele>
        <time>2022-01-01T14:07:25.000Z</time>
      </trkpt>
      <trkpt lat="45.07752" lon="5.82494">
        <ele>1354.7</ele>
        <time>2022-01-01T14:07:35.000Z</time>
      </trkpt>
      <trkpt lat="45.0776" lon="5.82495">
        <ele>1358.22</ele>
        <time>2022-01-01T14:07:45.000Z</time>
      </trkpt>
      <trkpt lat="45.07762" lon="5.82492">
        <ele>1356.62</ele>
        <time>2022-01-01T14:07:55.000Z</time>
      </trkpt>
      <trkpt lat="45.07766" lon="5.82495">
        <ele>1357.46</ele>
        <time>2022-01-01T14:08:05.000Z</time>
      </trkpt>
      <trkpt lat="45.07765" lon="5.82505">
        <ele>1352.07</ele>
        <time>2022-01-01T14:08:15.000Z</time>
      </trkpt>
      <trkpt lat="45.07763" lon="5.82513">
        <ele>1349.84</ele>
        <time>2022-01-01T14:08:25.000Z</time>
      </trkpt>
      <trkpt lat="45.07765" lon="5.82512">
        <ele>1350.21</ele>
        <time>2022-01-01T14:08:35.000Z</time>
      </trkpt>
      <trkpt lat="45.07764" lon="5.82514">
        <ele>1354.98</ele>
        <time>2022-01-01T14:08:45.000Z</time>
      </trkpt>
      <trkpt lat="45.07765" lon="5.8253">
        <ele>1351.68</ele>
        <time>2022-01-01T14:08:55.000Z</time>
      </trkpt>
      <trkpt lat="45.07762" lon="5.8254">
        <ele>1355.45</ele>
        <time>2022-01-01T14:09:05.000Z</time>
      </trkpt>
      <trkpt lat="45.07762" lon="5.82542">
        <ele>1354.76</ele>
        <time>2022-01-01T14:09:20.000Z</time>
      </trkpt>
      <trkpt lat="45.07761" lon="5.82543">
        <ele>1354.89</ele>
        <time>2022-01-01T14:09:30.000Z</time>
      </trkpt>
      <trkpt lat="45.07762" lon="5.82552">
        <ele>1353.99</ele>
        <time>2022-01-01T14:09:40.000Z</time>
      </trkpt>
      <trkpt lat="45.07763" lon="5.82553">
        <ele>1357.1</ele>
        <time>2022-01-01T14:09:52.000Z</time>
      </trkpt>
      <trkpt lat="45.07762" lon="5.82556">
        <ele>1359.42</ele>
        <time>2022-01-01T14:10:02.000Z</time>
      </trkpt>
      <trkpt lat="45.07762" lon="5.82558">
        <ele>1360.33</ele>
        <time>2022-01-01T14:11:47.000Z</time>
      </trkpt>
      <trkpt lat="45.07787" lon="5.8267">
        <ele>1337.63</ele>
        <time>2022-01-01T14:13:11.000Z</time>
      </trkpt>
      <trkpt lat="45.078" lon="5.82734">
        <ele>1334.3</ele>
        <time>2022-01-01T14:14:01.000Z</time>
      </trkpt>
      <trkpt lat="45.07799" lon="5.82732">
        <ele>1336.92</ele>
        <time>2022-01-01T14:14:11.000Z</time>
      </trkpt>
      <trkpt lat="45.07802" lon="5.82736">
        <ele>1336.78</ele>
        <time>2022-01-01T14:14:21.000Z</time>
      </trkpt>
      <trkpt lat="45.07803" lon="5.8273">
        <ele>1332.6</ele>
        <time>2022-01-01T14:14:31.000Z</time>
      </trkpt>
      <trkpt lat="45.07803" lon="5.82728">
        <ele>1331.74</ele>
        <time>2022-01-01T14:14:41.000Z</time>
      </trkpt>
      <trkpt lat="45.07803" lon="5.82729">
        <ele>1334.06</ele>
        <time>2022-01-01T14:15:02.000Z</time>
      </trkpt>
      <trkpt lat="45.07803" lon="5.82728">
        <ele>1334.16</ele>
        <time>2022-01-01T14:16:14.000Z</time>
      </trkpt>
      <trkpt lat="45.07803" lon="5.82727">
        <ele>1334.65</ele>
        <time>2022-01-01T14:17:20.000Z</time>
      </trkpt>
      <trkpt lat="45.07803" lon="5.82728">
        <ele>1337.54</ele>
        <time>2022-01-01T14:17:37.000Z</time>
      </trkpt>
      <trkpt lat="45.07811" lon="5.82723">
        <ele>1344.34</ele>
        <time>2022-01-01T14:17:47.000Z</time>
      </trkpt>
      <trkpt lat="45.07815" lon="5.82721">
        <ele>1347.41</ele>
        <time>2022-01-01T14:17:57.000Z</time>
      </trkpt>
      <trkpt lat="45.07816" lon="5.82719">
        <ele>1348.39</ele>
        <time>2022-01-01T14:18:07.000Z</time>
      </trkpt>
      <trkpt lat="45.07817" lon="5.82718">
        <ele>1350.9</ele>
        <time>2022-01-01T14:18:34.000Z</time>
      </trkpt>
      <trkpt lat="45.07825" lon="5.82712">
        <ele>1355.45</ele>
        <time>2022-01-01T14:18:44.000Z</time>
      </trkpt>
      <trkpt lat="45.07827" lon="5.82712">
        <ele>1355.3</ele>
        <time>2022-01-01T14:18:54.000Z</time>
      </trkpt>
      <trkpt lat="45.07828" lon="5.82712">
        <ele>1355.42</ele>
        <time>2022-01-01T14:19:15.000Z</time>
      </trkpt>
      <trkpt lat="45.07839" lon="5.82705">
        <ele>1365.39</ele>
        <time>2022-01-01T14:19:25.000Z</time>
      </trkpt>
      <trkpt lat="45.07845" lon="5.82703">
        <ele>1367.01</ele>
        <time>2022-01-01T14:19:35.000Z</time>
      </trkpt>
      <trkpt lat="45.07847" lon="5.82701">
        <ele>1367.58</ele>
        <time>2022-01-01T14:19:45.000Z</time>
      </trkpt>
      <trkpt lat="45.07848" lon="5.827">
        <ele>1368.11</ele>
        <time>2022-01-01T14:19:55.000Z</time>
      </trkpt>
      <trkpt lat="45.07854" lon="5.82703">
        <ele>1375.83</ele>
        <time>2022-01-01T14:20:05.000Z</time>
      </trkpt>
      <trkpt lat="45.07859" lon="5.827">
        <ele>1380.97</ele>
        <time>2022-01-01T14:20:15.000Z</time>
      </trkpt>
      <trkpt lat="45.07865" lon="5.82695">
        <ele>1383.27</ele>
        <time>2022-01-01T14:20:25.000Z</time>
      </trkpt>
      <trkpt lat="45.07866" lon="5.82693">
        <ele>1385.02</ele>
        <time>2022-01-01T14:20:35.000Z</time>
      </trkpt>
      <trkpt lat="45.07868" lon="5.82691">
        <ele>1387.88</ele>
        <time>2022-01-01T14:20:45.000Z</time>
      </trkpt>
      <trkpt lat="45.07869" lon="5.82689">
        <ele>1390.23</ele>
        <time>2022-01-01T14:20:55.000Z</time>
      </trkpt>
      <trkpt lat="45.07869" lon="5.82691">
        <ele>1391.03</ele>
        <time>2022-01-01T14:21:05.000Z</time>
      </trkpt>
      <trkpt lat="45.07869" lon="5.82693">
        <ele>1391.41</ele>
        <time>2022-01-01T14:21:46.000Z</time>
      </trkpt>
      <trkpt lat="45.07881" lon="5.82698">
        <ele>1398.9</ele>
        <time>2022-01-01T14:21:56.000Z</time>
      </trkpt>
      <trkpt lat="45.07887" lon="5.82696">
        <ele>1399.85</ele>
        <time>2022-01-01T14:22:06.000Z</time>
      </trkpt>
      <trkpt lat="45.0789" lon="5.82697">
        <ele>1398.82</ele>
        <time>2022-01-01T14:22:16.000Z</time>
      </trkpt>
      <trkpt lat="45.07892" lon="5.82697">
        <ele>1399.02</ele>
        <time>2022-01-01T14:22:26.000Z</time>
      </trkpt>
      <trkpt lat="45.07892" lon="5.82698">
        <ele>1400.08</ele>
        <time>2022-01-01T14:22:47.000Z</time>
      </trkpt>
      <trkpt lat="45.07894" lon="5.82699">
        <ele>1400.92</ele>
        <time>2022-01-01T14:23:19.000Z</time>
      </trkpt>
      <trkpt lat="45.07908" lon="5.82726">
        <ele>1404.45</ele>
        <time>2022-01-01T14:23:29.000Z</time>
      </trkpt>
      <trkpt lat="45.07911" lon="5.82732">
        <ele>1403.2</ele>
        <time>2022-01-01T14:23:39.000Z</time>
      </trkpt>
      <trkpt lat="45.07913" lon="5.82733">
        <ele>1404.53</ele>
        <time>2022-01-01T14:23:49.000Z</time>
      </trkpt>
      <trkpt lat="45.07914" lon="5.82732">
        <ele>1405.11</ele>
        <time>2022-01-01T14:24:07.000Z</time>
      </trkpt>
      <trkpt lat="45.07914" lon="5.82734">
        <ele>1405.08</ele>
        <time>2022-01-01T14:24:38.000Z</time>
      </trkpt>
      <trkpt lat="45.07926" lon="5.82754">
        <ele>1408.47</ele>
        <time>2022-01-01T14:24:48.000Z</time>
      </trkpt>
      <trkpt lat="45.07934" lon="5.82764">
        <ele>1415.91</ele>
        <time>2022-01-01T14:24:58.000Z</time>
      </trkpt>
      <trkpt lat="45.07935" lon="5.82768">
        <ele>1415.86</ele>
        <time>2022-01-01T14:25:08.000Z</time>
      </trkpt>
      <trkpt lat="45.07935" lon="5.8277">
        <ele>1415.27</ele>
        <time>2022-01-01T14:25:18.000Z</time>
      </trkpt>
      <trkpt lat="45.07936" lon="5.82769">
        <ele>1415.87</ele>
        <time>2022-01-01T14:25:28.000Z</time>
      </trkpt>
      <trkpt lat="45.07937" lon="5.82771">
        <ele>1416.62</ele>
        <time>2022-01-01T14:26:00.000Z</time>
      </trkpt>
      <trkpt lat="45.07941" lon="5.82779">
        <ele>1427.19</ele>
        <time>2022-01-01T14:26:10.000Z</time>
      </trkpt>
      <trkpt lat="45.07944" lon="5.82783">
        <ele>1428.04</ele>
        <time>2022-01-01T14:26:20.000Z</time>
      </trkpt>
      <trkpt lat="45.07944" lon="5.82784">
        <ele>1427.1</ele>
        <time>2022-01-01T14:26:35.000Z</time>
      </trkpt>
      <trkpt lat="45.07947" lon="5.82785">
        <ele>1427.19</ele>
        <time>2022-01-01T14:27:02.000Z</time>
      </trkpt>
      <trkpt lat="45.07966" lon="5.82793">
        <ele>1435.26</ele>
        <time>2022-01-01T14:27:12.000Z</time>
      </trkpt>
      <trkpt lat="45.07982" lon="5.82809">
        <ele>1427.5</ele>
        <time>2022-01-01T14:27:22.000Z</time>
      </trkpt>
      <trkpt lat="45.07991" lon="5.82818">
        <ele>1428.88</ele>
        <time>2022-01-01T14:27:32.000Z</time>
      </trkpt>
      <trkpt lat="45.07994" lon="5.82823">
        <ele>1427.66</ele>
        <time>2022-01-01T14:27:42.000Z</time>
      </trkpt>
      <trkpt lat="45.07995" lon="5.82822">
        <ele>1436.12</ele>
        <time>2022-01-01T14:27:55.000Z</time>
      </trkpt>
      <trkpt lat="45.07994" lon="5.82826">
        <ele>1435.52</ele>
        <time>2022-01-01T14:28:05.000Z</time>
      </trkpt>
      <trkpt lat="45.07995" lon="5.82828">
        <ele>1442.17</ele>
        <time>2022-01-01T14:28:15.000Z</time>
      </trkpt>
      <trkpt lat="45.08007" lon="5.82827">
        <ele>1445.26</ele>
        <time>2022-01-01T14:28:25.000Z</time>
      </trkpt>
      <trkpt lat="45.08013" lon="5.82834">
        <ele>1444.75</ele>
        <time>2022-01-01T14:28:35.000Z</time>
      </trkpt>
      <trkpt lat="45.08015" lon="5.82828">
        <ele>1448.67</ele>
        <time>2022-01-01T14:28:45.000Z</time>
      </trkpt>
      <trkpt lat="45.08022" lon="5.82834">
        <ele>1447.67</ele>
        <time>2022-01-01T14:28:55.000Z</time>
      </trkpt>
      <trkpt lat="45.08021" lon="5.8284">
        <ele>1449.98</ele>
        <time>2022-01-01T14:29:05.000Z</time>
      </trkpt>
      <trkpt lat="45.08019" lon="5.82843">
        <ele>1450.75</ele>
        <time>2022-01-01T14:29:15.000Z</time>
      </trkpt>
      <trkpt lat="45.0802" lon="5.82844">
        <ele>1450.57</ele>
        <time>2022-01-01T14:29:26.000Z</time>
      </trkpt>
      <trkpt lat="45.08021" lon="5.82844">
        <ele>1450.82</ele>
        <time>2022-01-01T14:29:38.000Z</time>
      </trkpt>
      <trkpt lat="45.08021" lon="5.82845">
        <ele>1451</ele>
        <time>2022-01-01T14:29:49.000Z</time>
      </trkpt>
      <trkpt lat="45.08027" lon="5.82859">
        <ele>1457.93</ele>
        <time>2022-01-01T14:29:59.000Z</time>
      </trkpt>
      <trkpt lat="45.08041" lon="5.8287">
        <ele>1462.99</ele>
        <time>2022-01-01T14:30:09.000Z</time>
      </trkpt>
      <trkpt lat="45.08054" lon="5.82879">
        <ele>1456.04</ele>
        <time>2022-01-01T14:30:19.000Z</time>
      </trkpt>
      <trkpt lat="45.08064" lon="5.82883">
        <ele>1458.12</ele>
        <time>2022-01-01T14:30:29.000Z</time>
      </trkpt>
      <trkpt lat="45.08063" lon="5.82883">
        <ele>1457.2</ele>
        <time>2022-01-01T14:30:39.000Z</time>
      </trkpt>
      <trkpt lat="45.08064" lon="5.82884">
        <ele>1456.91</ele>
        <time>2022-01-01T14:30:59.000Z</time>
      </trkpt>
      <trkpt lat="45.08064" lon="5.82888">
        <ele>1454.47</ele>
        <time>2022-01-01T14:31:09.000Z</time>
      </trkpt>
      <trkpt lat="45.08062" lon="5.82889">
        <ele>1453.21</ele>
        <time>2022-01-01T14:31:42.000Z</time>
      </trkpt>
      <trkpt lat="45.08069" lon="5.82914">
        <ele>1454.35</ele>
        <time>2022-01-01T14:31:52.000Z</time>
      </trkpt>
      <trkpt lat="45.08112" lon="5.83038">
        <ele>1455.56</ele>
        <time>2022-01-01T14:33:17.000Z</time>
      </trkpt>
      <trkpt lat="45.08116" lon="5.83038">
        <ele>1449.59</ele>
        <time>2022-01-01T14:33:27.000Z</time>
      </trkpt>
      <trkpt lat="45.0812" lon="5.83045">
        <ele>1449.27</ele>
        <time>2022-01-01T14:33:37.000Z</time>
      </trkpt>
      <trkpt lat="45.08119" lon="5.83056">
        <ele>1451.96</ele>
        <time>2022-01-01T14:33:47.000Z</time>
      </trkpt>
      <trkpt lat="45.08128" lon="5.83059">
        <ele>1459.53</ele>
        <time>2022-01-01T14:33:57.000Z</time>
      </trkpt>
      <trkpt lat="45.08129" lon="5.8306">
        <ele>1459.85</ele>
        <time>2022-01-01T14:34:07.000Z</time>
      </trkpt>
      <trkpt lat="45.08131" lon="5.83062">
        <ele>1458.99</ele>
        <time>2022-01-01T14:34:22.000Z</time>
      </trkpt>
      <trkpt lat="45.08138" lon="5.83082">
        <ele>1456.38</ele>
        <time>2022-01-01T14:34:32.000Z</time>
      </trkpt>
      <trkpt lat="45.08147" lon="5.831">
        <ele>1459.97</ele>
        <time>2022-01-01T14:34:42.000Z</time>
      </trkpt>
      <trkpt lat="45.08164" lon="5.83124">
        <ele>1462.76</ele>
        <time>2022-01-01T14:34:52.000Z</time>
      </trkpt>
      <trkpt lat="45.08178" lon="5.83129">
        <ele>1467.48</ele>
        <time>2022-01-01T14:35:02.000Z</time>
      </trkpt>
      <trkpt lat="45.08188" lon="5.83136">
        <ele>1468.59</ele>
        <time>2022-01-01T14:35:12.000Z</time>
      </trkpt>
      <trkpt lat="45.08194" lon="5.83147">
        <ele>1470.96</ele>
        <time>2022-01-01T14:35:22.000Z</time>
      </trkpt>
      <trkpt lat="45.08197" lon="5.83158">
        <ele>1469.08</ele>
        <time>2022-01-01T14:35:32.000Z</time>
      </trkpt>
      <trkpt lat="45.08196" lon="5.83165">
        <ele>1463.08</ele>
        <time>2022-01-01T14:35:42.000Z</time>
      </trkpt>
      <trkpt lat="45.08198" lon="5.83176">
        <ele>1465.23</ele>
        <time>2022-01-01T14:35:52.000Z</time>
      </trkpt>
      <trkpt lat="45.08196" lon="5.83187">
        <ele>1460.88</ele>
        <time>2022-01-01T14:36:02.000Z</time>
      </trkpt>
      <trkpt lat="45.08194" lon="5.83196">
        <ele>1461.57</ele>
        <time>2022-01-01T14:36:12.000Z</time>
      </trkpt>
      <trkpt lat="45.08189" lon="5.83209">
        <ele>1456.36</ele>
        <time>2022-01-01T14:36:22.000Z</time>
      </trkpt>
      <trkpt lat="45.08186" lon="5.83219">
        <ele>1456.15</ele>
        <time>2022-01-01T14:36:32.000Z</time>
      </trkpt>
      <trkpt lat="45.08183" lon="5.83226">
        <ele>1453.11</ele>
        <time>2022-01-01T14:36:42.000Z</time>
      </trkpt>
      <trkpt lat="45.08185" lon="5.83233">
        <ele>1456.61</ele>
        <time>2022-01-01T14:36:52.000Z</time>
      </trkpt>
      <trkpt lat="45.08199" lon="5.83265">
        <ele>1455.65</ele>
        <time>2022-01-01T14:37:17.000Z</time>
      </trkpt>
      <trkpt lat="45.08193" lon="5.83281">
        <ele>1462.81</ele>
        <time>2022-01-01T14:37:27.000Z</time>
      </trkpt>
      <trkpt lat="45.08194" lon="5.83283">
        <ele>1462.11</ele>
        <time>2022-01-01T14:37:37.000Z</time>
      </trkpt>
      <trkpt lat="45.08195" lon="5.83284">
        <ele>1463.17</ele>
        <time>2022-01-01T14:37:47.000Z</time>
      </trkpt>
      <trkpt lat="45.08196" lon="5.83286">
        <ele>1464.4</ele>
        <time>2022-01-01T14:37:58.000Z</time>
      </trkpt>
      <trkpt lat="45.08204" lon="5.8329">
        <ele>1469.53</ele>
        <time>2022-01-01T14:38:08.000Z</time>
      </trkpt>
      <trkpt lat="45.08208" lon="5.83287">
        <ele>1466.53</ele>
        <time>2022-01-01T14:38:18.000Z</time>
      </trkpt>
      <trkpt lat="45.08203" lon="5.83286">
        <ele>1467.29</ele>
        <time>2022-01-01T14:38:28.000Z</time>
      </trkpt>
      <trkpt lat="45.08205" lon="5.83275">
        <ele>1464.47</ele>
        <time>2022-01-01T14:38:38.000Z</time>
      </trkpt>
      <trkpt lat="45.0821" lon="5.83281">
        <ele>1464.73</ele>
        <time>2022-01-01T14:38:48.000Z</time>
      </trkpt>
      <trkpt lat="45.08208" lon="5.83284">
        <ele>1463.91</ele>
        <time>2022-01-01T14:38:58.000Z</time>
      </trkpt>
      <trkpt lat="45.08208" lon="5.83285">
        <ele>1464.53</ele>
        <time>2022-01-01T14:39:15.000Z</time>
      </trkpt>
      <trkpt lat="45.08213" lon="5.83289">
        <ele>1457.71</ele>
        <time>2022-01-01T14:39:25.000Z</time>
      </trkpt>
      <trkpt lat="45.08217" lon="5.83299">
        <ele>1455.08</ele>
        <time>2022-01-01T14:39:35.000Z</time>
      </trkpt>
      <trkpt lat="45.08219" lon="5.83299">
        <ele>1455.63</ele>
        <time>2022-01-01T14:39:45.000Z</time>
      </trkpt>
      <trkpt lat="45.08221" lon="5.833">
        <ele>1455.45</ele>
        <time>2022-01-01T14:40:43.000Z</time>
      </trkpt>
      <trkpt lat="45.08238" lon="5.83309">
        <ele>1453.02</ele>
        <time>2022-01-01T14:40:53.000Z</time>
      </trkpt>
      <trkpt lat="45.08242" lon="5.83308">
        <ele>1451.61</ele>
        <time>2022-01-01T14:41:03.000Z</time>
      </trkpt>
      <trkpt lat="45.08246" lon="5.83306">
        <ele>1448.48</ele>
        <time>2022-01-01T14:41:13.000Z</time>
      </trkpt>
      <trkpt lat="45.08247" lon="5.83307">
        <ele>1448.26</ele>
        <time>2022-01-01T14:41:25.000Z</time>
      </trkpt>
      <trkpt lat="45.08261" lon="5.83307">
        <ele>1457.25</ele>
        <time>2022-01-01T14:41:35.000Z</time>
      </trkpt>
      <trkpt lat="45.08271" lon="5.83314">
        <ele>1454.66</ele>
        <time>2022-01-01T14:41:45.000Z</time>
      </trkpt>
      <trkpt lat="45.08277" lon="5.83315">
        <ele>1460.18</ele>
        <time>2022-01-01T14:41:55.000Z</time>
      </trkpt>
      <trkpt lat="45.08283" lon="5.83327">
        <ele>1469.12</ele>
        <time>2022-01-01T14:42:05.000Z</time>
      </trkpt>
      <trkpt lat="45.08287" lon="5.83329">
        <ele>1467.6</ele>
        <time>2022-01-01T14:42:15.000Z</time>
      </trkpt>
      <trkpt lat="45.08285" lon="5.83332">
        <ele>1467.47</ele>
        <time>2022-01-01T14:42:25.000Z</time>
      </trkpt>
      <trkpt lat="45.08286" lon="5.83332">
        <ele>1468.03</ele>
        <time>2022-01-01T14:42:40.000Z</time>
      </trkpt>
      <trkpt lat="45.08289" lon="5.83355">
        <ele>1474.91</ele>
        <time>2022-01-01T14:42:50.000Z</time>
      </trkpt>
      <trkpt lat="45.08299" lon="5.8338">
        <ele>1474.67</ele>
        <time>2022-01-01T14:43:00.000Z</time>
      </trkpt>
      <trkpt lat="45.08309" lon="5.83395">
        <ele>1476.69</ele>
        <time>2022-01-01T14:43:10.000Z</time>
      </trkpt>
      <trkpt lat="45.0831" lon="5.83414">
        <ele>1475.17</ele>
        <time>2022-01-01T14:43:21.000Z</time>
      </trkpt>
      <trkpt lat="45.08329" lon="5.83416">
        <ele>1477.69</ele>
        <time>2022-01-01T14:43:38.000Z</time>
      </trkpt>
      <trkpt lat="45.08327" lon="5.83428">
        <ele>1472.5</ele>
        <time>2022-01-01T14:43:48.000Z</time>
      </trkpt>
      <trkpt lat="45.08356" lon="5.83444">
        <ele>1479.94</ele>
        <time>2022-01-01T14:44:05.000Z</time>
      </trkpt>
      <trkpt lat="45.08342" lon="5.83463">
        <ele>1476.52</ele>
        <time>2022-01-01T14:44:15.000Z</time>
      </trkpt>
      <trkpt lat="45.08341" lon="5.8348">
        <ele>1480.8</ele>
        <time>2022-01-01T14:44:25.000Z</time>
      </trkpt>
      <trkpt lat="45.08346" lon="5.83499">
        <ele>1477.45</ele>
        <time>2022-01-01T14:44:35.000Z</time>
      </trkpt>
      <trkpt lat="45.08346" lon="5.835">
        <ele>1471.01</ele>
        <time>2022-01-01T14:44:45.000Z</time>
      </trkpt>
      <trkpt lat="45.08351" lon="5.83497">
        <ele>1475.12</ele>
        <time>2022-01-01T14:44:55.000Z</time>
      </trkpt>
      <trkpt lat="45.08352" lon="5.8351">
        <ele>1476.01</ele>
        <time>2022-01-01T14:45:05.000Z</time>
      </trkpt>
      <trkpt lat="45.08355" lon="5.83521">
        <ele>1474</ele>
        <time>2022-01-01T14:45:15.000Z</time>
      </trkpt>
      <trkpt lat="45.08362" lon="5.83529">
        <ele>1473.19</ele>
        <time>2022-01-01T14:45:25.000Z</time>
      </trkpt>
      <trkpt lat="45.0837" lon="5.83531">
        <ele>1473.64</ele>
        <time>2022-01-01T14:45:35.000Z</time>
      </trkpt>
      <trkpt lat="45.08377" lon="5.83535">
        <ele>1476.32</ele>
        <time>2022-01-01T14:45:45.000Z</time>
      </trkpt>
      <trkpt lat="45.08377" lon="5.83537">
        <ele>1477.06</ele>
        <time>2022-01-01T14:45:55.000Z</time>
      </trkpt>
      <trkpt lat="45.08379" lon="5.8354">
        <ele>1481.1</ele>
        <time>2022-01-01T14:46:05.000Z</time>
      </trkpt>
      <trkpt lat="45.08379" lon="5.83541">
        <ele>1481.21</ele>
        <time>2022-01-01T14:46:20.000Z</time>
      </trkpt>
      <trkpt lat="45.08381" lon="5.83541">
        <ele>1482.13</ele>
        <time>2022-01-01T14:46:30.000Z</time>
      </trkpt>
      <trkpt lat="45.08391" lon="5.83556">
        <ele>1487.03</ele>
        <time>2022-01-01T14:46:40.000Z</time>
      </trkpt>
      <trkpt lat="45.084" lon="5.83569">
        <ele>1492.33</ele>
        <time>2022-01-01T14:46:50.000Z</time>
      </trkpt>
      <trkpt lat="45.08403" lon="5.83572">
        <ele>1493.06</ele>
        <time>2022-01-01T14:47:00.000Z</time>
      </trkpt>
      <trkpt lat="45.08403" lon="5.83575">
        <ele>1492.04</ele>
        <time>2022-01-01T14:47:10.000Z</time>
      </trkpt>
      <trkpt lat="45.08402" lon="5.83578">
        <ele>1492.79</ele>
        <time>2022-01-01T14:47:20.000Z</time>
      </trkpt>
      <trkpt lat="45.08404" lon="5.83584">
        <ele>1491.28</ele>
        <time>2022-01-01T14:47:30.000Z</time>
      </trkpt>
      <trkpt lat="45.08408" lon="5.83591">
        <ele>1488.44</ele>
        <time>2022-01-01T14:47:40.000Z</time>
      </trkpt>
      <trkpt lat="45.08409" lon="5.83594">
        <ele>1489.56</ele>
        <time>2022-01-01T14:47:50.000Z</time>
      </trkpt>
      <trkpt lat="45.08414" lon="5.83606">
        <ele>1492.24</ele>
        <time>2022-01-01T14:48:00.000Z</time>
      </trkpt>
      <trkpt lat="45.08417" lon="5.83618">
        <ele>1493.35</ele>
        <time>2022-01-01T14:48:10.000Z</time>
      </trkpt>
      <trkpt lat="45.08418" lon="5.83628">
        <ele>1488.81</ele>
        <time>2022-01-01T14:48:20.000Z</time>
      </trkpt>
      <trkpt lat="45.08421" lon="5.83633">
        <ele>1491.19</ele>
        <time>2022-01-01T14:48:30.000Z</time>
      </trkpt>
      <trkpt lat="45.0843" lon="5.83639">
        <ele>1498.87</ele>
        <time>2022-01-01T14:48:40.000Z</time>
      </trkpt>
      <trkpt lat="45.08445" lon="5.83642">
        <ele>1502.06</ele>
        <time>2022-01-01T14:48:50.000Z</time>
      </trkpt>
      <trkpt lat="45.08453" lon="5.83651">
        <ele>1502.04</ele>
        <time>2022-01-01T14:49:00.000Z</time>
      </trkpt>
      <trkpt lat="45.08462" lon="5.83655">
        <ele>1502.32</ele>
        <time>2022-01-01T14:49:10.000Z</time>
      </trkpt>
      <trkpt lat="45.08463" lon="5.83655">
        <ele>1502.83</ele>
        <time>2022-01-01T14:49:23.000Z</time>
      </trkpt>
      <trkpt lat="45.08462" lon="5.83658">
        <ele>1501.98</ele>
        <time>2022-01-01T14:49:33.000Z</time>
      </trkpt>
      <trkpt lat="45.08463" lon="5.83659">
        <ele>1502.66</ele>
        <time>2022-01-01T14:50:15.000Z</time>
      </trkpt>
      <trkpt lat="45.08464" lon="5.83678">
        <ele>1500.89</ele>
        <time>2022-01-01T14:50:25.000Z</time>
      </trkpt>
      <trkpt lat="45.08466" lon="5.83699">
        <ele>1501.96</ele>
        <time>2022-01-01T14:50:35.000Z</time>
      </trkpt>
      <trkpt lat="45.08468" lon="5.83707">
        <ele>1501.45</ele>
        <time>2022-01-01T14:50:45.000Z</time>
      </trkpt>
      <trkpt lat="45.08468" lon="5.83709">
        <ele>1499.61</ele>
        <time>2022-01-01T14:50:55.000Z</time>
      </trkpt>
      <trkpt lat="45.08468" lon="5.83712">
        <ele>1499.33</ele>
        <time>2022-01-01T14:51:09.000Z</time>
      </trkpt>
      <trkpt lat="45.08514" lon="5.83709">
        <ele>1508.14</ele>
        <time>2022-01-01T14:51:19.000Z</time>
      </trkpt>
      <trkpt lat="45.08511" lon="5.83721">
        <ele>1514.14</ele>
        <time>2022-01-01T14:51:29.000Z</time>
      </trkpt>
      <trkpt lat="45.08507" lon="5.83725">
        <ele>1515.13</ele>
        <time>2022-01-01T14:51:39.000Z</time>
      </trkpt>
      <trkpt lat="45.08507" lon="5.83726">
        <ele>1515.97</ele>
        <time>2022-01-01T14:51:59.000Z</time>
      </trkpt>
      <trkpt lat="45.0851" lon="5.83727">
        <ele>1516.62</ele>
        <time>2022-01-01T14:52:47.000Z</time>
      </trkpt>
      <trkpt lat="45.08595" lon="5.83781">
        <ele>1526.81</ele>
        <time>2022-01-01T14:53:58.000Z</time>
      </trkpt>
      <trkpt lat="45.0863" lon="5.83841">
        <ele>1523.58</ele>
        <time>2022-01-01T14:55:28.000Z</time>
      </trkpt>
      <trkpt lat="45.08627" lon="5.83853">
        <ele>1521.87</ele>
        <time>2022-01-01T14:55:38.000Z</time>
      </trkpt>
      <trkpt lat="45.08637" lon="5.83846">
        <ele>1519.02</ele>
        <time>2022-01-01T14:56:07.000Z</time>
      </trkpt>
      <trkpt lat="45.08646" lon="5.83844">
        <ele>1521.99</ele>
        <time>2022-01-01T14:56:17.000Z</time>
      </trkpt>
      <trkpt lat="45.08647" lon="5.83846">
        <ele>1522.07</ele>
        <time>2022-01-01T14:56:29.000Z</time>
      </trkpt>
      <trkpt lat="45.08645" lon="5.83848">
        <ele>1522.36</ele>
        <time>2022-01-01T14:56:39.000Z</time>
      </trkpt>
      <trkpt lat="45.08647" lon="5.83847">
        <ele>1522.7</ele>
        <time>2022-01-01T14:56:51.000Z</time>
      </trkpt>
      <trkpt lat="45.08665" lon="5.83851">
        <ele>1532.13</ele>
        <time>2022-01-01T14:57:01.000Z</time>
      </trkpt>
      <trkpt lat="45.08679" lon="5.83859">
        <ele>1534.52</ele>
        <time>2022-01-01T14:57:11.000Z</time>
      </trkpt>
      <trkpt lat="45.08685" lon="5.83851">
        <ele>1536.69</ele>
        <time>2022-01-01T14:57:21.000Z</time>
      </trkpt>
      <trkpt lat="45.0868" lon="5.83857">
        <ele>1526.63</ele>
        <time>2022-01-01T14:57:31.000Z</time>
      </trkpt>
      <trkpt lat="45.08682" lon="5.83858">
        <ele>1527.91</ele>
        <time>2022-01-01T14:57:41.000Z</time>
      </trkpt>
      <trkpt lat="45.08683" lon="5.83859">
        <ele>1528.05</ele>
        <time>2022-01-01T14:58:15.000Z</time>
      </trkpt>
      <trkpt lat="45.08691" lon="5.83858">
        <ele>1529.42</ele>
        <time>2022-01-01T14:58:25.000Z</time>
      </trkpt>
      <trkpt lat="45.08703" lon="5.8385">
        <ele>1527.43</ele>
        <time>2022-01-01T14:58:35.000Z</time>
      </trkpt>
      <trkpt lat="45.08719" lon="5.8384">
        <ele>1534.82</ele>
        <time>2022-01-01T14:58:45.000Z</time>
      </trkpt>
      <trkpt lat="45.08719" lon="5.83838">
        <ele>1535.54</ele>
        <time>2022-01-01T14:58:55.000Z</time>
      </trkpt>
      <trkpt lat="45.0872" lon="5.83835">
        <ele>1537.76</ele>
        <time>2022-01-01T14:59:05.000Z</time>
      </trkpt>
      <trkpt lat="45.08724" lon="5.83836">
        <ele>1529.2</ele>
        <time>2022-01-01T14:59:15.000Z</time>
      </trkpt>
      <trkpt lat="45.08722" lon="5.83841">
        <ele>1532.11</ele>
        <time>2022-01-01T14:59:25.000Z</time>
      </trkpt>
      <trkpt lat="45.08732" lon="5.83843">
        <ele>1531.57</ele>
        <time>2022-01-01T14:59:41.000Z</time>
      </trkpt>
      <trkpt lat="45.08725" lon="5.83835">
        <ele>1532.68</ele>
        <time>2022-01-01T14:59:51.000Z</time>
      </trkpt>
      <trkpt lat="45.08723" lon="5.83832">
        <ele>1531.94</ele>
        <time>2022-01-01T15:00:01.000Z</time>
      </trkpt>
      <trkpt lat="45.08724" lon="5.83833">
        <ele>1532.36</ele>
        <time>2022-01-01T15:00:11.000Z</time>
      </trkpt>
      <trkpt lat="45.08724" lon="5.83831">
        <ele>1531.53</ele>
        <time>2022-01-01T15:02:08.000Z</time>
      </trkpt>
      <trkpt lat="45.0873" lon="5.83811">
        <ele>1532.84</ele>
        <time>2022-01-01T15:02:18.000Z</time>
      </trkpt>
      <trkpt lat="45.08731" lon="5.83797">
        <ele>1540.2</ele>
        <time>2022-01-01T15:02:28.000Z</time>
      </trkpt>
      <trkpt lat="45.08729" lon="5.83793">
        <ele>1539.9</ele>
        <time>2022-01-01T15:02:38.000Z</time>
      </trkpt>
      <trkpt lat="45.0873" lon="5.83791">
        <ele>1540.08</ele>
        <time>2022-01-01T15:02:48.000Z</time>
      </trkpt>
      <trkpt lat="45.0873" lon="5.8379">
        <ele>1541.27</ele>
        <time>2022-01-01T15:02:59.000Z</time>
      </trkpt>
      <trkpt lat="45.08744" lon="5.83777">
        <ele>1535.34</ele>
        <time>2022-01-01T15:03:09.000Z</time>
      </trkpt>
      <trkpt lat="45.08742" lon="5.83778">
        <ele>1533.3</ele>
        <time>2022-01-01T15:03:19.000Z</time>
      </trkpt>
      <trkpt lat="45.08742" lon="5.83775">
        <ele>1534.09</ele>
        <time>2022-01-01T15:03:29.000Z</time>
      </trkpt>
      <trkpt lat="45.08741" lon="5.83774">
        <ele>1533.34</ele>
        <time>2022-01-01T15:03:43.000Z</time>
      </trkpt>
      <trkpt lat="45.0874" lon="5.83774">
        <ele>1533.67</ele>
        <time>2022-01-01T15:03:53.000Z</time>
      </trkpt>
      <trkpt lat="45.08739" lon="5.83774">
        <ele>1533.95</ele>
        <time>2022-01-01T15:04:06.000Z</time>
      </trkpt>
      <trkpt lat="45.08737" lon="5.83777">
        <ele>1532.82</ele>
        <time>2022-01-01T15:05:34.000Z</time>
      </trkpt>
      <trkpt lat="45.08725" lon="5.83786">
        <ele>1529.54</ele>
        <time>2022-01-01T15:05:44.000Z</time>
      </trkpt>
      <trkpt lat="45.08714" lon="5.83793">
        <ele>1522.97</ele>
        <time>2022-01-01T15:05:56.000Z</time>
      </trkpt>
      <trkpt lat="45.0872" lon="5.83801">
        <ele>1523.12</ele>
        <time>2022-01-01T15:06:13.000Z</time>
      </trkpt>
      <trkpt lat="45.08734" lon="5.83822">
        <ele>1526.36</ele>
        <time>2022-01-01T15:07:04.000Z</time>
      </trkpt>
      <trkpt lat="45.08739" lon="5.83819">
        <ele>1527.64</ele>
        <time>2022-01-01T15:07:14.000Z</time>
      </trkpt>
      <trkpt lat="45.08745" lon="5.8382">
        <ele>1530.62</ele>
        <time>2022-01-01T15:07:24.000Z</time>
      </trkpt>
      <trkpt lat="45.08746" lon="5.83818">
        <ele>1529.48</ele>
        <time>2022-01-01T15:07:43.000Z</time>
      </trkpt>
      <trkpt lat="45.08778" lon="5.8379">
        <ele>1540.1</ele>
        <time>2022-01-01T15:07:53.000Z</time>
      </trkpt>
      <trkpt lat="45.08787" lon="5.83774">
        <ele>1529.79</ele>
        <time>2022-01-01T15:08:03.000Z</time>
      </trkpt>
      <trkpt lat="45.08794" lon="5.83758">
        <ele>1527.27</ele>
        <time>2022-01-01T15:08:13.000Z</time>
      </trkpt>
      <trkpt lat="45.08799" lon="5.83749">
        <ele>1528.86</ele>
        <time>2022-01-01T15:08:23.000Z</time>
      </trkpt>
      <trkpt lat="45.08801" lon="5.83746">
        <ele>1531.48</ele>
        <time>2022-01-01T15:08:33.000Z</time>
      </trkpt>
      <trkpt lat="45.08804" lon="5.83729">
        <ele>1529.86</ele>
        <time>2022-01-01T15:08:43.000Z</time>
      </trkpt>
      <trkpt lat="45.08806" lon="5.83724">
        <ele>1530.59</ele>
        <time>2022-01-01T15:08:53.000Z</time>
      </trkpt>
      <trkpt lat="45.08804" lon="5.83716">
        <ele>1529.58</ele>
        <time>2022-01-01T15:09:03.000Z</time>
      </trkpt>
      <trkpt lat="45.08771" lon="5.83679">
        <ele>1526.2</ele>
        <time>2022-01-01T15:09:35.000Z</time>
      </trkpt>
      <trkpt lat="45.08774" lon="5.8368">
        <ele>1523.16</ele>
        <time>2022-01-01T15:09:45.000Z</time>
      </trkpt>
      <trkpt lat="45.08773" lon="5.83681">
        <ele>1523.32</ele>
        <time>2022-01-01T15:09:58.000Z</time>
      </trkpt>
      <trkpt lat="45.08767" lon="5.83681">
        <ele>1517.23</ele>
        <time>2022-01-01T15:10:34.000Z</time>
      </trkpt>
      <trkpt lat="45.08756" lon="5.83665">
        <ele>1519.77</ele>
        <time>2022-01-01T15:10:44.000Z</time>
      </trkpt>
      <trkpt lat="45.08729" lon="5.83639">
        <ele>1513.85</ele>
        <time>2022-01-01T15:11:05.000Z</time>
      </trkpt>
      <trkpt lat="45.08719" lon="5.83621">
        <ele>1508.7</ele>
        <time>2022-01-01T15:11:23.000Z</time>
      </trkpt>
      <trkpt lat="45.087" lon="5.83609">
        <ele>1511.2</ele>
        <time>2022-01-01T15:11:40.000Z</time>
      </trkpt>
      <trkpt lat="45.08692" lon="5.83595">
        <ele>1505.06</ele>
        <time>2022-01-01T15:11:50.000Z</time>
      </trkpt>
      <trkpt lat="45.08684" lon="5.83593">
        <ele>1501.53</ele>
        <time>2022-01-01T15:12:00.000Z</time>
      </trkpt>
      <trkpt lat="45.0868" lon="5.83587">
        <ele>1498.73</ele>
        <time>2022-01-01T15:12:10.000Z</time>
      </trkpt>
      <trkpt lat="45.08678" lon="5.83583">
        <ele>1498.08</ele>
        <time>2022-01-01T15:12:20.000Z</time>
      </trkpt>
      <trkpt lat="45.08672" lon="5.83589">
        <ele>1497.25</ele>
        <time>2022-01-01T15:14:19.000Z</time>
      </trkpt>
      <trkpt lat="45.0867" lon="5.83589">
        <ele>1496.77</ele>
        <time>2022-01-01T15:14:32.000Z</time>
      </trkpt>
      <trkpt lat="45.08593" lon="5.83562">
        <ele>1496.61</ele>
        <time>2022-01-01T15:15:09.000Z</time>
      </trkpt>
      <trkpt lat="45.0859" lon="5.83558">
        <ele>1497.65</ele>
        <time>2022-01-01T15:15:19.000Z</time>
      </trkpt>
      <trkpt lat="45.08588" lon="5.83554">
        <ele>1499.66</ele>
        <time>2022-01-01T15:15:29.000Z</time>
      </trkpt>
      <trkpt lat="45.08532" lon="5.83496">
        <ele>1493.64</ele>
        <time>2022-01-01T15:17:46.000Z</time>
      </trkpt>
      <trkpt lat="45.08534" lon="5.83499">
        <ele>1491.15</ele>
        <time>2022-01-01T15:17:56.000Z</time>
      </trkpt>
      <trkpt lat="45.08537" lon="5.83491">
        <ele>1493.71</ele>
        <time>2022-01-01T15:18:06.000Z</time>
      </trkpt>
      <trkpt lat="45.08538" lon="5.83492">
        <ele>1492.54</ele>
        <time>2022-01-01T15:18:29.000Z</time>
      </trkpt>
      <trkpt lat="45.08547" lon="5.8349">
        <ele>1487.05</ele>
        <time>2022-01-01T15:18:39.000Z</time>
      </trkpt>
      <trkpt lat="45.08574" lon="5.83488">
        <ele>1475.37</ele>
        <time>2022-01-01T15:18:49.000Z</time>
      </trkpt>
      <trkpt lat="45.08588" lon="5.83499">
        <ele>1467.36</ele>
        <time>2022-01-01T15:18:59.000Z</time>
      </trkpt>
      <trkpt lat="45.08598" lon="5.83495">
        <ele>1463.65</ele>
        <time>2022-01-01T15:19:09.000Z</time>
      </trkpt>
      <trkpt lat="45.08605" lon="5.83498">
        <ele>1462.77</ele>
        <time>2022-01-01T15:19:20.000Z</time>
      </trkpt>
      <trkpt lat="45.0861" lon="5.83502">
        <ele>1461.37</ele>
        <time>2022-01-01T15:19:30.000Z</time>
      </trkpt>
      <trkpt lat="45.08613" lon="5.83494">
        <ele>1458.8</ele>
        <time>2022-01-01T15:19:40.000Z</time>
      </trkpt>
      <trkpt lat="45.08616" lon="5.83484">
        <ele>1459</ele>
        <time>2022-01-01T15:19:50.000Z</time>
      </trkpt>
      <trkpt lat="45.08633" lon="5.8346">
        <ele>1461.94</ele>
        <time>2022-01-01T15:20:01.000Z</time>
      </trkpt>
      <trkpt lat="45.08638" lon="5.83459">
        <ele>1461.54</ele>
        <time>2022-01-01T15:20:11.000Z</time>
      </trkpt>
      <trkpt lat="45.08648" lon="5.83455">
        <ele>1458.43</ele>
        <time>2022-01-01T15:20:21.000Z</time>
      </trkpt>
      <trkpt lat="45.08651" lon="5.83451">
        <ele>1453.4</ele>
        <time>2022-01-01T15:20:31.000Z</time>
      </trkpt>
      <trkpt lat="45.08653" lon="5.83448">
        <ele>1454.13</ele>
        <time>2022-01-01T15:20:41.000Z</time>
      </trkpt>
      <trkpt lat="45.08654" lon="5.83446">
        <ele>1454.11</ele>
        <time>2022-01-01T15:20:51.000Z</time>
      </trkpt>
      <trkpt lat="45.08656" lon="5.83442">
        <ele>1454.92</ele>
        <time>2022-01-01T15:21:13.000Z</time>
      </trkpt>
      <trkpt lat="45.08677" lon="5.83419">
        <ele>1453.62</ele>
        <time>2022-01-01T15:21:23.000Z</time>
      </trkpt>
      <trkpt lat="45.08689" lon="5.83417">
        <ele>1446.77</ele>
        <time>2022-01-01T15:21:33.000Z</time>
      </trkpt>
      <trkpt lat="45.08705" lon="5.83414">
        <ele>1447.31</ele>
        <time>2022-01-01T15:21:43.000Z</time>
      </trkpt>
      <trkpt lat="45.08705" lon="5.83403">
        <ele>1445.79</ele>
        <time>2022-01-01T15:21:53.000Z</time>
      </trkpt>
      <trkpt lat="45.08712" lon="5.834">
        <ele>1448.75</ele>
        <time>2022-01-01T15:22:03.000Z</time>
      </trkpt>
      <trkpt lat="45.08716" lon="5.83397">
        <ele>1451</ele>
        <time>2022-01-01T15:22:13.000Z</time>
      </trkpt>
      <trkpt lat="45.08718" lon="5.83397">
        <ele>1449.39</ele>
        <time>2022-01-01T15:22:30.000Z</time>
      </trkpt>
      <trkpt lat="45.08738" lon="5.83406">
        <ele>1438.31</ele>
        <time>2022-01-01T15:22:40.000Z</time>
      </trkpt>
      <trkpt lat="45.08755" lon="5.83403">
        <ele>1434.95</ele>
        <time>2022-01-01T15:22:50.000Z</time>
      </trkpt>
      <trkpt lat="45.08768" lon="5.83409">
        <ele>1431.35</ele>
        <time>2022-01-01T15:23:00.000Z</time>
      </trkpt>
      <trkpt lat="45.08778" lon="5.83411">
        <ele>1424.62</ele>
        <time>2022-01-01T15:23:10.000Z</time>
      </trkpt>
      <trkpt lat="45.08787" lon="5.83418">
        <ele>1423.54</ele>
        <time>2022-01-01T15:23:20.000Z</time>
      </trkpt>
      <trkpt lat="45.08791" lon="5.83418">
        <ele>1423.35</ele>
        <time>2022-01-01T15:23:30.000Z</time>
      </trkpt>
      <trkpt lat="45.08801" lon="5.83417">
        <ele>1426.77</ele>
        <time>2022-01-01T15:23:40.000Z</time>
      </trkpt>
      <trkpt lat="45.08806" lon="5.83416">
        <ele>1424.34</ele>
        <time>2022-01-01T15:23:50.000Z</time>
      </trkpt>
      <trkpt lat="45.08812" lon="5.83424">
        <ele>1425.09</ele>
        <time>2022-01-01T15:24:00.000Z</time>
      </trkpt>
      <trkpt lat="45.08823" lon="5.83432">
        <ele>1421.31</ele>
        <time>2022-01-01T15:24:10.000Z</time>
      </trkpt>
      <trkpt lat="45.08826" lon="5.83437">
        <ele>1420.13</ele>
        <time>2022-01-01T15:24:20.000Z</time>
      </trkpt>
      <trkpt lat="45.08832" lon="5.8344">
        <ele>1415.78</ele>
        <time>2022-01-01T15:24:30.000Z</time>
      </trkpt>
      <trkpt lat="45.08844" lon="5.83451">
        <ele>1407.23</ele>
        <time>2022-01-01T15:24:40.000Z</time>
      </trkpt>
      <trkpt lat="45.08853" lon="5.8345">
        <ele>1408.77</ele>
        <time>2022-01-01T15:24:50.000Z</time>
      </trkpt>
      <trkpt lat="45.08864" lon="5.83454">
        <ele>1408.22</ele>
        <time>2022-01-01T15:25:00.000Z</time>
      </trkpt>
      <trkpt lat="45.08866" lon="5.83454">
        <ele>1410.38</ele>
        <time>2022-01-01T15:25:10.000Z</time>
      </trkpt>
      <trkpt lat="45.08879" lon="5.83451">
        <ele>1416.25</ele>
        <time>2022-01-01T15:25:20.000Z</time>
      </trkpt>
      <trkpt lat="45.08887" lon="5.83457">
        <ele>1411.66</ele>
        <time>2022-01-01T15:25:30.000Z</time>
      </trkpt>
      <trkpt lat="45.08889" lon="5.83461">
        <ele>1411.93</ele>
        <time>2022-01-01T15:25:40.000Z</time>
      </trkpt>
      <trkpt lat="45.08894" lon="5.83462">
        <ele>1408.45</ele>
        <time>2022-01-01T15:25:50.000Z</time>
      </trkpt>
      <trkpt lat="45.08901" lon="5.83465">
        <ele>1409.09</ele>
        <time>2022-01-01T15:26:00.000Z</time>
      </trkpt>
      <trkpt lat="45.08908" lon="5.83457">
        <ele>1410.26</ele>
        <time>2022-01-01T15:26:11.000Z</time>
      </trkpt>
      <trkpt lat="45.08915" lon="5.83463">
        <ele>1409.8</ele>
        <time>2022-01-01T15:26:21.000Z</time>
      </trkpt>
      <trkpt lat="45.08931" lon="5.83463">
        <ele>1405.27</ele>
        <time>2022-01-01T15:26:31.000Z</time>
      </trkpt>
      <trkpt lat="45.08949" lon="5.83482">
        <ele>1409.82</ele>
        <time>2022-01-01T15:26:41.000Z</time>
      </trkpt>
      <trkpt lat="45.08956" lon="5.83496">
        <ele>1402.29</ele>
        <time>2022-01-01T15:26:51.000Z</time>
      </trkpt>
      <trkpt lat="45.08966" lon="5.83498">
        <ele>1401.52</ele>
        <time>2022-01-01T15:27:01.000Z</time>
      </trkpt>
      <trkpt lat="45.08975" lon="5.83517">
        <ele>1388.94</ele>
        <time>2022-01-01T15:27:16.000Z</time>
      </trkpt>
      <trkpt lat="45.08984" lon="5.8352">
        <ele>1389.36</ele>
        <time>2022-01-01T15:27:26.000Z</time>
      </trkpt>
      <trkpt lat="45.08991" lon="5.83533">
        <ele>1391.62</ele>
        <time>2022-01-01T15:27:36.000Z</time>
      </trkpt>
      <trkpt lat="45.09008" lon="5.83574">
        <ele>1391.92</ele>
        <time>2022-01-01T15:28:04.000Z</time>
      </trkpt>
      <trkpt lat="45.08996" lon="5.83577">
        <ele>1374.9</ele>
        <time>2022-01-01T15:28:14.000Z</time>
      </trkpt>
      <trkpt lat="45.09004" lon="5.83583">
        <ele>1375.45</ele>
        <time>2022-01-01T15:28:24.000Z</time>
      </trkpt>
      <trkpt lat="45.09017" lon="5.83597">
        <ele>1370.93</ele>
        <time>2022-01-01T15:28:34.000Z</time>
      </trkpt>
      <trkpt lat="45.0903" lon="5.83602">
        <ele>1373.99</ele>
        <time>2022-01-01T15:28:44.000Z</time>
      </trkpt>
      <trkpt lat="45.0904" lon="5.83612">
        <ele>1373.95</ele>
        <time>2022-01-01T15:28:54.000Z</time>
      </trkpt>
      <trkpt lat="45.09047" lon="5.83621">
        <ele>1376.75</ele>
        <time>2022-01-01T15:29:04.000Z</time>
      </trkpt>
      <trkpt lat="45.09057" lon="5.83625">
        <ele>1376.78</ele>
        <time>2022-01-01T15:29:14.000Z</time>
      </trkpt>
      <trkpt lat="45.09059" lon="5.83635">
        <ele>1373.2</ele>
        <time>2022-01-01T15:29:24.000Z</time>
      </trkpt>
      <trkpt lat="45.09063" lon="5.83635">
        <ele>1371.64</ele>
        <time>2022-01-01T15:29:34.000Z</time>
      </trkpt>
      <trkpt lat="45.09068" lon="5.83637">
        <ele>1367.6</ele>
        <time>2022-01-01T15:29:44.000Z</time>
      </trkpt>
      <trkpt lat="45.09074" lon="5.83639">
        <ele>1367.29</ele>
        <time>2022-01-01T15:29:54.000Z</time>
      </trkpt>
      <trkpt lat="45.09078" lon="5.83642">
        <ele>1369.43</ele>
        <time>2022-01-01T15:30:04.000Z</time>
      </trkpt>
      <trkpt lat="45.0908" lon="5.83643">
        <ele>1370.48</ele>
        <time>2022-01-01T15:30:23.000Z</time>
      </trkpt>
      <trkpt lat="45.0909" lon="5.83657">
        <ele>1366.85</ele>
        <time>2022-01-01T15:30:33.000Z</time>
      </trkpt>
      <trkpt lat="45.09123" lon="5.837">
        <ele>1365.62</ele>
        <time>2022-01-01T15:30:59.000Z</time>
      </trkpt>
      <trkpt lat="45.09128" lon="5.83707">
        <ele>1366.01</ele>
        <time>2022-01-01T15:31:17.000Z</time>
      </trkpt>
      <trkpt lat="45.0913" lon="5.83709">
        <ele>1367.14</ele>
        <time>2022-01-01T15:31:27.000Z</time>
      </trkpt>
      <trkpt lat="45.09133" lon="5.8371">
        <ele>1369.6</ele>
        <time>2022-01-01T15:31:37.000Z</time>
      </trkpt>
      <trkpt lat="45.09133" lon="5.83712">
        <ele>1368.27</ele>
        <time>2022-01-01T15:32:04.000Z</time>
      </trkpt>
      <trkpt lat="45.09143" lon="5.83744">
        <ele>1357.75</ele>
        <time>2022-01-01T15:32:17.000Z</time>
      </trkpt>
      <trkpt lat="45.09152" lon="5.83782">
        <ele>1355.89</ele>
        <time>2022-01-01T15:32:27.000Z</time>
      </trkpt>
      <trkpt lat="45.09151" lon="5.83815">
        <ele>1358.77</ele>
        <time>2022-01-01T15:32:37.000Z</time>
      </trkpt>
      <trkpt lat="45.09159" lon="5.83819">
        <ele>1355.95</ele>
        <time>2022-01-01T15:32:47.000Z</time>
      </trkpt>
      <trkpt lat="45.09148" lon="5.83849">
        <ele>1353.82</ele>
        <time>2022-01-01T15:32:57.000Z</time>
      </trkpt>
      <trkpt lat="45.0914" lon="5.83862">
        <ele>1352.18</ele>
        <time>2022-01-01T15:33:07.000Z</time>
      </trkpt>
      <trkpt lat="45.09136" lon="5.83867">
        <ele>1352.74</ele>
        <time>2022-01-01T15:33:17.000Z</time>
      </trkpt>
      <trkpt lat="45.09133" lon="5.83879">
        <ele>1355.6</ele>
        <time>2022-01-01T15:33:27.000Z</time>
      </trkpt>
      <trkpt lat="45.09123" lon="5.83889">
        <ele>1356.51</ele>
        <time>2022-01-01T15:33:42.000Z</time>
      </trkpt>
      <trkpt lat="45.09112" lon="5.83908">
        <ele>1349.58</ele>
        <time>2022-01-01T15:33:52.000Z</time>
      </trkpt>
      <trkpt lat="45.09093" lon="5.83907">
        <ele>1351.3</ele>
        <time>2022-01-01T15:34:02.000Z</time>
      </trkpt>
      <trkpt lat="45.09077" lon="5.83907">
        <ele>1348.8</ele>
        <time>2022-01-01T15:34:12.000Z</time>
      </trkpt>
      <trkpt lat="45.09071" lon="5.83917">
        <ele>1349.36</ele>
        <time>2022-01-01T15:34:22.000Z</time>
      </trkpt>
      <trkpt lat="45.09042" lon="5.83963">
        <ele>1349.63</ele>
        <time>2022-01-01T15:34:52.000Z</time>
      </trkpt>
      <trkpt lat="45.09033" lon="5.8397">
        <ele>1349.47</ele>
        <time>2022-01-01T15:35:02.000Z</time>
      </trkpt>
      <trkpt lat="45.09026" lon="5.83982">
        <ele>1350.95</ele>
        <time>2022-01-01T15:35:12.000Z</time>
      </trkpt>
      <trkpt lat="45.09012" lon="5.83992">
        <ele>1358.63</ele>
        <time>2022-01-01T15:35:27.000Z</time>
      </trkpt>
      <trkpt lat="45.08994" lon="5.83999">
        <ele>1359.11</ele>
        <time>2022-01-01T15:35:38.000Z</time>
      </trkpt>
      <trkpt lat="45.0898" lon="5.83999">
        <ele>1352.61</ele>
        <time>2022-01-01T15:35:48.000Z</time>
      </trkpt>
      <trkpt lat="45.08983" lon="5.84006">
        <ele>1347.28</ele>
        <time>2022-01-01T15:35:58.000Z</time>
      </trkpt>
      <trkpt lat="45.08981" lon="5.84005">
        <ele>1344.1</ele>
        <time>2022-01-01T15:36:08.000Z</time>
      </trkpt>
      <trkpt lat="45.08977" lon="5.83999">
        <ele>1344.33</ele>
        <time>2022-01-01T15:36:18.000Z</time>
      </trkpt>
      <trkpt lat="45.08981" lon="5.84005">
        <ele>1339.67</ele>
        <time>2022-01-01T15:36:28.000Z</time>
      </trkpt>
      <trkpt lat="45.08978" lon="5.8399">
        <ele>1339.06</ele>
        <time>2022-01-01T15:36:38.000Z</time>
      </trkpt>
      <trkpt lat="45.08965" lon="5.83993">
        <ele>1338.45</ele>
        <time>2022-01-01T15:36:48.000Z</time>
      </trkpt>
      <trkpt lat="45.08956" lon="5.84005">
        <ele>1336.91</ele>
        <time>2022-01-01T15:36:58.000Z</time>
      </trkpt>
      <trkpt lat="45.08949" lon="5.84019">
        <ele>1333.66</ele>
        <time>2022-01-01T15:37:08.000Z</time>
      </trkpt>
      <trkpt lat="45.08944" lon="5.84024">
        <ele>1328.53</ele>
        <time>2022-01-01T15:37:18.000Z</time>
      </trkpt>
      <trkpt lat="45.08943" lon="5.84037">
        <ele>1327.66</ele>
        <time>2022-01-01T15:37:28.000Z</time>
      </trkpt>
      <trkpt lat="45.08934" lon="5.84053">
        <ele>1334.13</ele>
        <time>2022-01-01T15:37:38.000Z</time>
      </trkpt>
      <trkpt lat="45.08926" lon="5.84072">
        <ele>1334.85</ele>
        <time>2022-01-01T15:37:48.000Z</time>
      </trkpt>
      <trkpt lat="45.08923" lon="5.84092">
        <ele>1333.04</ele>
        <time>2022-01-01T15:37:58.000Z</time>
      </trkpt>
      <trkpt lat="45.08913" lon="5.84118">
        <ele>1330.56</ele>
        <time>2022-01-01T15:38:08.000Z</time>
      </trkpt>
      <trkpt lat="45.08908" lon="5.84126">
        <ele>1329.14</ele>
        <time>2022-01-01T15:38:18.000Z</time>
      </trkpt>
      <trkpt lat="45.08912" lon="5.84111">
        <ele>1324.72</ele>
        <time>2022-01-01T15:38:28.000Z</time>
      </trkpt>
      <trkpt lat="45.0891" lon="5.84115">
        <ele>1324.61</ele>
        <time>2022-01-01T15:38:38.000Z</time>
      </trkpt>
      <trkpt lat="45.08915" lon="5.84114">
        <ele>1323.85</ele>
        <time>2022-01-01T15:38:48.000Z</time>
      </trkpt>
      <trkpt lat="45.08914" lon="5.84114">
        <ele>1322.93</ele>
        <time>2022-01-01T15:39:00.000Z</time>
      </trkpt>
      <trkpt lat="45.08911" lon="5.84114">
        <ele>1322.31</ele>
        <time>2022-01-01T15:39:10.000Z</time>
      </trkpt>
      <trkpt lat="45.08911" lon="5.84123">
        <ele>1319.06</ele>
        <time>2022-01-01T15:39:20.000Z</time>
      </trkpt>
      <trkpt lat="45.08907" lon="5.84152">
        <ele>1318.83</ele>
        <time>2022-01-01T15:39:30.000Z</time>
      </trkpt>
      <trkpt lat="45.08902" lon="5.84171">
        <ele>1313.99</ele>
        <time>2022-01-01T15:39:40.000Z</time>
      </trkpt>
      <trkpt lat="45.08899" lon="5.84185">
        <ele>1309.55</ele>
        <time>2022-01-01T15:39:50.000Z</time>
      </trkpt>
      <trkpt lat="45.08899" lon="5.842">
        <ele>1313.35</ele>
        <time>2022-01-01T15:40:00.000Z</time>
      </trkpt>
      <trkpt lat="45.08902" lon="5.84219">
        <ele>1314.15</ele>
        <time>2022-01-01T15:40:10.000Z</time>
      </trkpt>
      <trkpt lat="45.08903" lon="5.84228">
        <ele>1310.42</ele>
        <time>2022-01-01T15:40:20.000Z</time>
      </trkpt>
      <trkpt lat="45.08908" lon="5.84249">
        <ele>1314.51</ele>
        <time>2022-01-01T15:40:30.000Z</time>
      </trkpt>
      <trkpt lat="45.08907" lon="5.84259">
        <ele>1313.31</ele>
        <time>2022-01-01T15:40:40.000Z</time>
      </trkpt>
      <trkpt lat="45.08907" lon="5.84284">
        <ele>1315.16</ele>
        <time>2022-01-01T15:40:55.000Z</time>
      </trkpt>
      <trkpt lat="45.08917" lon="5.84303">
        <ele>1316.29</ele>
        <time>2022-01-01T15:41:06.000Z</time>
      </trkpt>
      <trkpt lat="45.08961" lon="5.84339">
        <ele>1312.85</ele>
        <time>2022-01-01T15:41:38.000Z</time>
      </trkpt>
      <trkpt lat="45.08958" lon="5.84344">
        <ele>1308.71</ele>
        <time>2022-01-01T15:41:48.000Z</time>
      </trkpt>
      <trkpt lat="45.08972" lon="5.84356">
        <ele>1306.44</ele>
        <time>2022-01-01T15:41:58.000Z</time>
      </trkpt>
      <trkpt lat="45.0898" lon="5.84369">
        <ele>1303.58</ele>
        <time>2022-01-01T15:42:11.000Z</time>
      </trkpt>
      <trkpt lat="45.08975" lon="5.84405">
        <ele>1298.09</ele>
        <time>2022-01-01T15:42:42.000Z</time>
      </trkpt>
      <trkpt lat="45.08987" lon="5.8442">
        <ele>1293.1</ele>
        <time>2022-01-01T15:42:58.000Z</time>
      </trkpt>
      <trkpt lat="45.09003" lon="5.84425">
        <ele>1294.21</ele>
        <time>2022-01-01T15:43:08.000Z</time>
      </trkpt>
      <trkpt lat="45.09017" lon="5.8443">
        <ele>1290.27</ele>
        <time>2022-01-01T15:43:18.000Z</time>
      </trkpt>
      <trkpt lat="45.09063" lon="5.84482">
        <ele>1287.3</ele>
        <time>2022-01-01T15:44:09.000Z</time>
      </trkpt>
      <trkpt lat="45.09062" lon="5.84488">
        <ele>1283.91</ele>
        <time>2022-01-01T15:44:25.000Z</time>
      </trkpt>
      <trkpt lat="45.09109" lon="5.84505">
        <ele>1299.75</ele>
        <time>2022-01-01T15:44:57.000Z</time>
      </trkpt>
      <trkpt lat="45.09121" lon="5.84504">
        <ele>1293.25</ele>
        <time>2022-01-01T15:45:07.000Z</time>
      </trkpt>
      <trkpt lat="45.09122" lon="5.84522">
        <ele>1288.55</ele>
        <time>2022-01-01T15:45:17.000Z</time>
      </trkpt>
      <trkpt lat="45.09114" lon="5.84533">
        <ele>1282.07</ele>
        <time>2022-01-01T15:45:27.000Z</time>
      </trkpt>
      <trkpt lat="45.09116" lon="5.84551">
        <ele>1284.72</ele>
        <time>2022-01-01T15:45:37.000Z</time>
      </trkpt>
      <trkpt lat="45.09116" lon="5.84567">
        <ele>1283.12</ele>
        <time>2022-01-01T15:45:47.000Z</time>
      </trkpt>
      <trkpt lat="45.09115" lon="5.84583">
        <ele>1280.44</ele>
        <time>2022-01-01T15:45:57.000Z</time>
      </trkpt>
      <trkpt lat="45.09117" lon="5.84601">
        <ele>1278.51</ele>
        <time>2022-01-01T15:46:07.000Z</time>
      </trkpt>
      <trkpt lat="45.09117" lon="5.84611">
        <ele>1276.02</ele>
        <time>2022-01-01T15:46:17.000Z</time>
      </trkpt>
      <trkpt lat="45.09113" lon="5.84631">
        <ele>1278.74</ele>
        <time>2022-01-01T15:46:27.000Z</time>
      </trkpt>
      <trkpt lat="45.09118" lon="5.84651">
        <ele>1287.5</ele>
        <time>2022-01-01T15:46:37.000Z</time>
      </trkpt>
      <trkpt lat="45.09113" lon="5.84661">
        <ele>1287.83</ele>
        <time>2022-01-01T15:46:47.000Z</time>
      </trkpt>
      <trkpt lat="45.09092" lon="5.84683">
        <ele>1289.89</ele>
        <time>2022-01-01T15:46:57.000Z</time>
      </trkpt>
      <trkpt lat="45.09097" lon="5.84688">
        <ele>1296.89</ele>
        <time>2022-01-01T15:47:07.000Z</time>
      </trkpt>
      <trkpt lat="45.09088" lon="5.847">
        <ele>1292.18</ele>
        <time>2022-01-01T15:47:17.000Z</time>
      </trkpt>
      <trkpt lat="45.09079" lon="5.84723">
        <ele>1290.91</ele>
        <time>2022-01-01T15:47:27.000Z</time>
      </trkpt>
      <trkpt lat="45.09072" lon="5.84734">
        <ele>1291.82</ele>
        <time>2022-01-01T15:47:37.000Z</time>
      </trkpt>
      <trkpt lat="45.09071" lon="5.84733">
        <ele>1294.05</ele>
        <time>2022-01-01T15:47:47.000Z</time>
      </trkpt>
      <trkpt lat="45.09071" lon="5.8473">
        <ele>1294.49</ele>
        <time>2022-01-01T15:47:57.000Z</time>
      </trkpt>
      <trkpt lat="45.0907" lon="5.84731">
        <ele>1291.32</ele>
        <time>2022-01-01T15:48:12.000Z</time>
      </trkpt>
      <trkpt lat="45.09066" lon="5.84735">
        <ele>1288.72</ele>
        <time>2022-01-01T15:48:22.000Z</time>
      </trkpt>
      <trkpt lat="45.09055" lon="5.8474">
        <ele>1284.66</ele>
        <time>2022-01-01T15:48:32.000Z</time>
      </trkpt>
      <trkpt lat="45.09044" lon="5.84741">
        <ele>1281.87</ele>
        <time>2022-01-01T15:48:42.000Z</time>
      </trkpt>
      <trkpt lat="45.09037" lon="5.84749">
        <ele>1283.4</ele>
        <time>2022-01-01T15:48:52.000Z</time>
      </trkpt>
      <trkpt lat="45.09026" lon="5.84754">
        <ele>1283.67</ele>
        <time>2022-01-01T15:49:02.000Z</time>
      </trkpt>
      <trkpt lat="45.09021" lon="5.8476">
        <ele>1278.98</ele>
        <time>2022-01-01T15:49:12.000Z</time>
      </trkpt>
      <trkpt lat="45.09012" lon="5.84756">
        <ele>1278.98</ele>
        <time>2022-01-01T15:49:22.000Z</time>
      </trkpt>
      <trkpt lat="45.09005" lon="5.84759">
        <ele>1277.81</ele>
        <time>2022-01-01T15:49:32.000Z</time>
      </trkpt>
      <trkpt lat="45.08994" lon="5.84767">
        <ele>1280.33</ele>
        <time>2022-01-01T15:49:42.000Z</time>
      </trkpt>
      <trkpt lat="45.08995" lon="5.8477">
        <ele>1279.68</ele>
        <time>2022-01-01T15:49:52.000Z</time>
      </trkpt>
      <trkpt lat="45.08993" lon="5.8477">
        <ele>1277.5</ele>
        <time>2022-01-01T15:50:04.000Z</time>
      </trkpt>
      <trkpt lat="45.0898" lon="5.84773">
        <ele>1277.04</ele>
        <time>2022-01-01T15:50:14.000Z</time>
      </trkpt>
      <trkpt lat="45.08969" lon="5.84789">
        <ele>1281.95</ele>
        <time>2022-01-01T15:50:24.000Z</time>
      </trkpt>
      <trkpt lat="45.08976" lon="5.84777">
        <ele>1278.38</ele>
        <time>2022-01-01T15:50:34.000Z</time>
      </trkpt>
      <trkpt lat="45.08962" lon="5.84784">
        <ele>1277.52</ele>
        <time>2022-01-01T15:50:44.000Z</time>
      </trkpt>
      <trkpt lat="45.08951" lon="5.84793">
        <ele>1276.36</ele>
        <time>2022-01-01T15:50:54.000Z</time>
      </trkpt>
      <trkpt lat="45.08946" lon="5.84792">
        <ele>1275.3</ele>
        <time>2022-01-01T15:51:04.000Z</time>
      </trkpt>
      <trkpt lat="45.08946" lon="5.84791">
        <ele>1274.26</ele>
        <time>2022-01-01T15:51:14.000Z</time>
      </trkpt>
      <trkpt lat="45.08941" lon="5.84792">
        <ele>1276.39</ele>
        <time>2022-01-01T15:51:29.000Z</time>
      </trkpt>
      <trkpt lat="45.08922" lon="5.84803">
        <ele>1279.28</ele>
        <time>2022-01-01T15:51:39.000Z</time>
      </trkpt>
      <trkpt lat="45.08913" lon="5.84804">
        <ele>1278.66</ele>
        <time>2022-01-01T15:51:49.000Z</time>
      </trkpt>
      <trkpt lat="45.08862" lon="5.84773">
        <ele>1271.82</ele>
        <time>2022-01-01T15:52:29.000Z</time>
      </trkpt>
      <trkpt lat="45.08853" lon="5.848">
        <ele>1271.55</ele>
        <time>2022-01-01T15:52:39.000Z</time>
      </trkpt>
      <trkpt lat="45.08849" lon="5.84816">
        <ele>1275.97</ele>
        <time>2022-01-01T15:52:49.000Z</time>
      </trkpt>
      <trkpt lat="45.08839" lon="5.84821">
        <ele>1280.07</ele>
        <time>2022-01-01T15:52:59.000Z</time>
      </trkpt>
      <trkpt lat="45.08831" lon="5.84825">
        <ele>1284.76</ele>
        <time>2022-01-01T15:53:09.000Z</time>
      </trkpt>
      <trkpt lat="45.0883" lon="5.84832">
        <ele>1284.12</ele>
        <time>2022-01-01T15:53:19.000Z</time>
      </trkpt>
      <trkpt lat="45.08826" lon="5.84831">
        <ele>1284.18</ele>
        <time>2022-01-01T15:53:29.000Z</time>
      </trkpt>
      <trkpt lat="45.08825" lon="5.84833">
        <ele>1284.25</ele>
        <time>2022-01-01T15:53:39.000Z</time>
      </trkpt>
      <trkpt lat="45.08824" lon="5.84835">
        <ele>1284.95</ele>
        <time>2022-01-01T15:53:49.000Z</time>
      </trkpt>
      <trkpt lat="45.08815" lon="5.8483">
        <ele>1284.68</ele>
        <time>2022-01-01T15:53:59.000Z</time>
      </trkpt>
      <trkpt lat="45.08771" lon="5.84792">
        <ele>1282.25</ele>
        <time>2022-01-01T15:54:27.000Z</time>
      </trkpt>
      <trkpt lat="45.08761" lon="5.84801">
        <ele>1275.09</ele>
        <time>2022-01-01T15:54:37.000Z</time>
      </trkpt>
      <trkpt lat="45.08748" lon="5.84808">
        <ele>1264.62</ele>
        <time>2022-01-01T15:54:47.000Z</time>
      </trkpt>
      <trkpt lat="45.08744" lon="5.84809">
        <ele>1264.25</ele>
        <time>2022-01-01T15:54:57.000Z</time>
      </trkpt>
      <trkpt lat="45.08739" lon="5.84816">
        <ele>1265.97</ele>
        <time>2022-01-01T15:55:07.000Z</time>
      </trkpt>
      <trkpt lat="45.08738" lon="5.84816">
        <ele>1263.99</ele>
        <time>2022-01-01T15:55:17.000Z</time>
      </trkpt>
      <trkpt lat="45.08737" lon="5.84817">
        <ele>1264.5</ele>
        <time>2022-01-01T15:55:32.000Z</time>
      </trkpt>
      <trkpt lat="45.0873" lon="5.84805">
        <ele>1258.48</ele>
        <time>2022-01-01T15:55:42.000Z</time>
      </trkpt>
      <trkpt lat="45.08729" lon="5.84793">
        <ele>1260.49</ele>
        <time>2022-01-01T15:55:52.000Z</time>
      </trkpt>
      <trkpt lat="45.08726" lon="5.84796">
        <ele>1258.66</ele>
        <time>2022-01-01T15:56:02.000Z</time>
      </trkpt>
      <trkpt lat="45.08723" lon="5.84796">
        <ele>1257.77</ele>
        <time>2022-01-01T15:56:12.000Z</time>
      </trkpt>
      <trkpt lat="45.08721" lon="5.84796">
        <ele>1256.85</ele>
        <time>2022-01-01T15:56:22.000Z</time>
      </trkpt>
      <trkpt lat="45.08715" lon="5.84796">
        <ele>1256.57</ele>
        <time>2022-01-01T15:56:32.000Z</time>
      </trkpt>
      <trkpt lat="45.08709" lon="5.84788">
        <ele>1257.94</ele>
        <time>2022-01-01T15:56:42.000Z</time>
      </trkpt>
      <trkpt lat="45.08698" lon="5.84787">
        <ele>1260.78</ele>
        <time>2022-01-01T15:56:52.000Z</time>
      </trkpt>
      <trkpt lat="45.08682" lon="5.84789">
        <ele>1263.01</ele>
        <time>2022-01-01T15:57:02.000Z</time>
      </trkpt>
      <trkpt lat="45.08684" lon="5.84784">
        <ele>1267.54</ele>
        <time>2022-01-01T15:57:12.000Z</time>
      </trkpt>
      <trkpt lat="45.08685" lon="5.84782">
        <ele>1266.27</ele>
        <time>2022-01-01T15:57:22.000Z</time>
      </trkpt>
      <trkpt lat="45.08685" lon="5.84781">
        <ele>1265.43</ele>
        <time>2022-01-01T15:58:26.000Z</time>
      </trkpt>
      <trkpt lat="45.08686" lon="5.8478">
        <ele>1263.51</ele>
        <time>2022-01-01T15:59:28.000Z</time>
      </trkpt>
      <trkpt lat="45.08686" lon="5.84779">
        <ele>1263.03</ele>
        <time>2022-01-01T16:00:16.000Z</time>
      </trkpt>
    </trkseg>
  </trk>
</gpx>